<?xml version="1.0" encoding="UTF-8" standalone="no" ?>
<gpx xmlns="http://www.topografix.com/GPX/1/1" xmlns:xsi="http://www.w3.org/2001/XMLSchema-instance" xsi:schemaLocation="http://www.topografix.com/GPX/1/1 http://www.topografix.com/GPX/1/1/gpx.xsd" version="1.1" creator="VisuGPX - https://www.visugpx.com">
  <metadata>
    <name>Blars 16kms</name>
  </metadata>
  <trk>
    <name><![CDATA[Blars 16kms]]></name>
    <extensions>
      <line xmlns="http://www.topografix.com/GPX/gpx_style/0/2">
        <color>00FF00</color>
        <width>4</width>
      </line>
    </extensions>
    <trkseg>
      <trkpt lat="44.56935" lon="1.73431">
        <ele>312.9</ele>
        <time>2022-01-22T12:48:53Z</time>
      </trkpt>
      <trkpt lat="44.5694" lon="1.73466">
        <ele>314</ele>
        <time>2022-01-22T12:49:05Z</time>
      </trkpt>
      <trkpt lat="44.56935" lon="1.73594">
        <ele>293.5</ele>
        <time>2022-01-22T12:49:18Z</time>
      </trkpt>
      <trkpt lat="44.56929" lon="1.73627">
        <ele>294.51</ele>
        <time>2022-01-22T12:49:26Z</time>
      </trkpt>
      <trkpt lat="44.56929" lon="1.73629">
        <ele>294.63</ele>
        <time>2022-01-22T12:49:27Z</time>
      </trkpt>
      <trkpt lat="44.56927" lon="1.7366">
        <ele>297.68</ele>
        <time>2022-01-22T12:49:49Z</time>
      </trkpt>
      <trkpt lat="44.56928" lon="1.73696">
        <ele>300.26</ele>
        <time>2022-01-22T12:50:12Z</time>
      </trkpt>
      <trkpt lat="44.56923" lon="1.73732">
        <ele>303.41</ele>
        <time>2022-01-22T12:50:35Z</time>
      </trkpt>
      <trkpt lat="44.56921" lon="1.73769">
        <ele>306.55</ele>
        <time>2022-01-22T12:51:00Z</time>
      </trkpt>
      <trkpt lat="44.5692" lon="1.73786">
        <ele>307.93</ele>
        <time>2022-01-22T12:51:12Z</time>
      </trkpt>
      <trkpt lat="44.5692" lon="1.73788">
        <ele>308.12</ele>
        <time>2022-01-22T12:51:13Z</time>
      </trkpt>
      <trkpt lat="44.56919" lon="1.7382">
        <ele>311.24</ele>
        <time>2022-01-22T12:51:35Z</time>
      </trkpt>
      <trkpt lat="44.5692" lon="1.73851">
        <ele>314.03</ele>
        <time>2022-01-22T12:51:56Z</time>
      </trkpt>
      <trkpt lat="44.56921" lon="1.73863">
        <ele>314.64</ele>
        <time>2022-01-22T12:52:01Z</time>
      </trkpt>
      <trkpt lat="44.56921" lon="1.73906">
        <ele>316.3</ele>
        <time>2022-01-22T12:52:19Z</time>
      </trkpt>
      <trkpt lat="44.56919" lon="1.73936">
        <ele>317.15</ele>
        <time>2022-01-22T12:52:33Z</time>
      </trkpt>
      <trkpt lat="44.56916" lon="1.73959">
        <ele>317.42</ele>
        <time>2022-01-22T12:52:44Z</time>
      </trkpt>
      <trkpt lat="44.56911" lon="1.7397">
        <ele>317.39</ele>
        <time>2022-01-22T12:52:59Z</time>
      </trkpt>
      <trkpt lat="44.56912" lon="1.73962">
        <ele>317.1</ele>
        <time>2022-01-22T12:53:11Z</time>
      </trkpt>
      <trkpt lat="44.56913" lon="1.73965">
        <ele>317.06</ele>
        <time>2022-01-22T12:53:44Z</time>
      </trkpt>
      <trkpt lat="44.56912" lon="1.73964">
        <ele>317.3</ele>
        <time>2022-01-22T12:54:16Z</time>
      </trkpt>
      <trkpt lat="44.56912" lon="1.73967">
        <ele>317.11</ele>
        <time>2022-01-22T12:54:45Z</time>
      </trkpt>
      <trkpt lat="44.56912" lon="1.73965">
        <ele>317.11</ele>
        <time>2022-01-22T12:54:46Z</time>
      </trkpt>
      <trkpt lat="44.56912" lon="1.73958">
        <ele>317.21</ele>
        <time>2022-01-22T12:55:22Z</time>
      </trkpt>
      <trkpt lat="44.56911" lon="1.73957">
        <ele>317.17</ele>
        <time>2022-01-22T12:55:24Z</time>
      </trkpt>
      <trkpt lat="44.56902" lon="1.73954">
        <ele>317.24</ele>
        <time>2022-01-22T12:55:30Z</time>
      </trkpt>
      <trkpt lat="44.56872" lon="1.73949">
        <ele>318.1</ele>
        <time>2022-01-22T12:55:54Z</time>
      </trkpt>
      <trkpt lat="44.56842" lon="1.73944">
        <ele>319.55</ele>
        <time>2022-01-22T12:56:18Z</time>
      </trkpt>
      <trkpt lat="44.56827" lon="1.73938">
        <ele>320.76</ele>
        <time>2022-01-22T12:56:34Z</time>
      </trkpt>
      <trkpt lat="44.56806" lon="1.73931">
        <ele>321.61</ele>
        <time>2022-01-22T12:56:52Z</time>
      </trkpt>
      <trkpt lat="44.56785" lon="1.73921">
        <ele>323.64</ele>
        <time>2022-01-22T12:57:11Z</time>
      </trkpt>
      <trkpt lat="44.56768" lon="1.73908">
        <ele>325.15</ele>
        <time>2022-01-22T12:57:29Z</time>
      </trkpt>
      <trkpt lat="44.56749" lon="1.73893">
        <ele>327.56</ele>
        <time>2022-01-22T12:57:48Z</time>
      </trkpt>
      <trkpt lat="44.56724" lon="1.73875">
        <ele>329.67</ele>
        <time>2022-01-22T12:58:11Z</time>
      </trkpt>
      <trkpt lat="44.5672" lon="1.73873">
        <ele>329.92</ele>
        <time>2022-01-22T12:58:14Z</time>
      </trkpt>
      <trkpt lat="44.56702" lon="1.73861">
        <ele>331.16</ele>
        <time>2022-01-22T12:58:31Z</time>
      </trkpt>
      <trkpt lat="44.56675" lon="1.73841">
        <ele>332.86</ele>
        <time>2022-01-22T12:58:57Z</time>
      </trkpt>
      <trkpt lat="44.5666" lon="1.73828">
        <ele>334.37</ele>
        <time>2022-01-22T12:59:21Z</time>
      </trkpt>
      <trkpt lat="44.56641" lon="1.73819">
        <ele>335.41</ele>
        <time>2022-01-22T12:59:43Z</time>
      </trkpt>
      <trkpt lat="44.56641" lon="1.73822">
        <ele>335.59</ele>
        <time>2022-01-22T13:00:18Z</time>
      </trkpt>
      <trkpt lat="44.5664" lon="1.73826">
        <ele>335.69</ele>
        <time>2022-01-22T13:00:27Z</time>
      </trkpt>
      <trkpt lat="44.56637" lon="1.73837">
        <ele>335.47</ele>
        <time>2022-01-22T13:00:35Z</time>
      </trkpt>
      <trkpt lat="44.56637" lon="1.73845">
        <ele>333.69</ele>
        <time>2022-01-22T13:00:50Z</time>
      </trkpt>
      <trkpt lat="44.56633" lon="1.73854">
        <ele>333.45</ele>
        <time>2022-01-22T13:00:58Z</time>
      </trkpt>
      <trkpt lat="44.56632" lon="1.73858">
        <ele>333.17</ele>
        <time>2022-01-22T13:01:02Z</time>
      </trkpt>
      <trkpt lat="44.5663" lon="1.73869">
        <ele>332.6</ele>
        <time>2022-01-22T13:01:06Z</time>
      </trkpt>
      <trkpt lat="44.56624" lon="1.73898">
        <ele>329.39</ele>
        <time>2022-01-22T13:01:25Z</time>
      </trkpt>
      <trkpt lat="44.56619" lon="1.73915">
        <ele>326.36</ele>
        <time>2022-01-22T13:01:36Z</time>
      </trkpt>
      <trkpt lat="44.56613" lon="1.73937">
        <ele>323.15</ele>
        <time>2022-01-22T13:01:49Z</time>
      </trkpt>
      <trkpt lat="44.56605" lon="1.73962">
        <ele>320.12</ele>
        <time>2022-01-22T13:02:05Z</time>
      </trkpt>
      <trkpt lat="44.56602" lon="1.73972">
        <ele>317.05</ele>
        <time>2022-01-22T13:02:19Z</time>
      </trkpt>
      <trkpt lat="44.56592" lon="1.73991">
        <ele>314.05</ele>
        <time>2022-01-22T13:02:35Z</time>
      </trkpt>
      <trkpt lat="44.56591" lon="1.74008">
        <ele>311.81</ele>
        <time>2022-01-22T13:02:52Z</time>
      </trkpt>
      <trkpt lat="44.5659" lon="1.74013">
        <ele>311.03</ele>
        <time>2022-01-22T13:03:23Z</time>
      </trkpt>
      <trkpt lat="44.56588" lon="1.74022">
        <ele>310.53</ele>
        <time>2022-01-22T13:03:55Z</time>
      </trkpt>
      <trkpt lat="44.56587" lon="1.74017">
        <ele>310.14</ele>
        <time>2022-01-22T13:04:29Z</time>
      </trkpt>
      <trkpt lat="44.56585" lon="1.74016">
        <ele>310.09</ele>
        <time>2022-01-22T13:05:07Z</time>
      </trkpt>
      <trkpt lat="44.5658" lon="1.74013">
        <ele>310.6</ele>
        <time>2022-01-22T13:05:21Z</time>
      </trkpt>
      <trkpt lat="44.56579" lon="1.74013">
        <ele>311.26</ele>
        <time>2022-01-22T13:06:06Z</time>
      </trkpt>
      <trkpt lat="44.56574" lon="1.74011">
        <ele>311.38</ele>
        <time>2022-01-22T13:07:11Z</time>
      </trkpt>
      <trkpt lat="44.56574" lon="1.74015">
        <ele>311.04</ele>
        <time>2022-01-22T13:07:23Z</time>
      </trkpt>
      <trkpt lat="44.56575" lon="1.74013">
        <ele>310.88</ele>
        <time>2022-01-22T13:07:26Z</time>
      </trkpt>
      <trkpt lat="44.56574" lon="1.74007">
        <ele>310.85</ele>
        <time>2022-01-22T13:07:31Z</time>
      </trkpt>
      <trkpt lat="44.56571" lon="1.73996">
        <ele>311.78</ele>
        <time>2022-01-22T13:07:41Z</time>
      </trkpt>
      <trkpt lat="44.56577" lon="1.74004">
        <ele>312.74</ele>
        <time>2022-01-22T13:07:55Z</time>
      </trkpt>
      <trkpt lat="44.56591" lon="1.74013">
        <ele>311.22</ele>
        <time>2022-01-22T13:08:11Z</time>
      </trkpt>
      <trkpt lat="44.56602" lon="1.74022">
        <ele>309.65</ele>
        <time>2022-01-22T13:08:30Z</time>
      </trkpt>
      <trkpt lat="44.56603" lon="1.74033">
        <ele>309</ele>
        <time>2022-01-22T13:08:44Z</time>
      </trkpt>
      <trkpt lat="44.56603" lon="1.74049">
        <ele>305.91</ele>
        <time>2022-01-22T13:09:01Z</time>
      </trkpt>
      <trkpt lat="44.56605" lon="1.74072">
        <ele>302.75</ele>
        <time>2022-01-22T13:09:18Z</time>
      </trkpt>
      <trkpt lat="44.56603" lon="1.7408">
        <ele>299.86</ele>
        <time>2022-01-22T13:09:37Z</time>
      </trkpt>
      <trkpt lat="44.56609" lon="1.74088">
        <ele>299.34</ele>
        <time>2022-01-22T13:09:57Z</time>
      </trkpt>
      <trkpt lat="44.56623" lon="1.74092">
        <ele>299.76</ele>
        <time>2022-01-22T13:10:21Z</time>
      </trkpt>
      <trkpt lat="44.56626" lon="1.74094">
        <ele>299.83</ele>
        <time>2022-01-22T13:10:26Z</time>
      </trkpt>
      <trkpt lat="44.56643" lon="1.74094">
        <ele>300.85</ele>
        <time>2022-01-22T13:10:47Z</time>
      </trkpt>
      <trkpt lat="44.56657" lon="1.74096">
        <ele>301.83</ele>
        <time>2022-01-22T13:11:01Z</time>
      </trkpt>
      <trkpt lat="44.56677" lon="1.741">
        <ele>302.41</ele>
        <time>2022-01-22T13:11:19Z</time>
      </trkpt>
      <trkpt lat="44.56689" lon="1.74099">
        <ele>302.5</ele>
        <time>2022-01-22T13:11:29Z</time>
      </trkpt>
      <trkpt lat="44.56709" lon="1.74106">
        <ele>302.77</ele>
        <time>2022-01-22T13:11:48Z</time>
      </trkpt>
      <trkpt lat="44.56724" lon="1.74104">
        <ele>302.62</ele>
        <time>2022-01-22T13:12:08Z</time>
      </trkpt>
      <trkpt lat="44.56729" lon="1.74102">
        <ele>302.8</ele>
        <time>2022-01-22T13:12:13Z</time>
      </trkpt>
      <trkpt lat="44.56738" lon="1.741">
        <ele>303.17</ele>
        <time>2022-01-22T13:12:21Z</time>
      </trkpt>
      <trkpt lat="44.56756" lon="1.74109">
        <ele>302.61</ele>
        <time>2022-01-22T13:12:37Z</time>
      </trkpt>
      <trkpt lat="44.56762" lon="1.74114">
        <ele>301.76</ele>
        <time>2022-01-22T13:13:01Z</time>
      </trkpt>
      <trkpt lat="44.56767" lon="1.74118">
        <ele>301.01</ele>
        <time>2022-01-22T13:13:10Z</time>
      </trkpt>
      <trkpt lat="44.56779" lon="1.74117">
        <ele>299.72</ele>
        <time>2022-01-22T13:13:22Z</time>
      </trkpt>
      <trkpt lat="44.56798" lon="1.74118">
        <ele>299.2</ele>
        <time>2022-01-22T13:13:44Z</time>
      </trkpt>
      <trkpt lat="44.56816" lon="1.74123">
        <ele>297.85</ele>
        <time>2022-01-22T13:13:59Z</time>
      </trkpt>
      <trkpt lat="44.5684" lon="1.74139">
        <ele>294.98</ele>
        <time>2022-01-22T13:14:21Z</time>
      </trkpt>
      <trkpt lat="44.56841" lon="1.7414">
        <ele>294.81</ele>
        <time>2022-01-22T13:14:22Z</time>
      </trkpt>
      <trkpt lat="44.56844" lon="1.74146">
        <ele>294.5</ele>
        <time>2022-01-22T13:14:26Z</time>
      </trkpt>
      <trkpt lat="44.56854" lon="1.7416">
        <ele>292.85</ele>
        <time>2022-01-22T13:14:38Z</time>
      </trkpt>
      <trkpt lat="44.56859" lon="1.74166">
        <ele>291.98</ele>
        <time>2022-01-22T13:14:43Z</time>
      </trkpt>
      <trkpt lat="44.56864" lon="1.74172">
        <ele>291.42</ele>
        <time>2022-01-22T13:14:48Z</time>
      </trkpt>
      <trkpt lat="44.56885" lon="1.74195">
        <ele>291.87</ele>
        <time>2022-01-22T13:15:08Z</time>
      </trkpt>
      <trkpt lat="44.56893" lon="1.74213">
        <ele>292.39</ele>
        <time>2022-01-22T13:15:24Z</time>
      </trkpt>
      <trkpt lat="44.56892" lon="1.74202">
        <ele>292.49</ele>
        <time>2022-01-22T13:15:58Z</time>
      </trkpt>
      <trkpt lat="44.56891" lon="1.74204">
        <ele>292.32</ele>
        <time>2022-01-22T13:16:37Z</time>
      </trkpt>
      <trkpt lat="44.56894" lon="1.74205">
        <ele>292.52</ele>
        <time>2022-01-22T13:16:57Z</time>
      </trkpt>
      <trkpt lat="44.56893" lon="1.74206">
        <ele>292.06</ele>
        <time>2022-01-22T13:17:18Z</time>
      </trkpt>
      <trkpt lat="44.56896" lon="1.74204">
        <ele>292.14</ele>
        <time>2022-01-22T13:17:50Z</time>
      </trkpt>
      <trkpt lat="44.56893" lon="1.74206">
        <ele>292.47</ele>
        <time>2022-01-22T13:18:55Z</time>
      </trkpt>
      <trkpt lat="44.5689" lon="1.74207">
        <ele>292.57</ele>
        <time>2022-01-22T13:19:04Z</time>
      </trkpt>
      <trkpt lat="44.56887" lon="1.74208">
        <ele>292.5</ele>
        <time>2022-01-22T13:19:07Z</time>
      </trkpt>
      <trkpt lat="44.56873" lon="1.7422">
        <ele>291.32</ele>
        <time>2022-01-22T13:19:22Z</time>
      </trkpt>
      <trkpt lat="44.56863" lon="1.74235">
        <ele>289.13</ele>
        <time>2022-01-22T13:19:36Z</time>
      </trkpt>
      <trkpt lat="44.56848" lon="1.74245">
        <ele>286.09</ele>
        <time>2022-01-22T13:19:50Z</time>
      </trkpt>
      <trkpt lat="44.56844" lon="1.74248">
        <ele>285.19</ele>
        <time>2022-01-22T13:19:54Z</time>
      </trkpt>
      <trkpt lat="44.56836" lon="1.74261">
        <ele>281.88</ele>
        <time>2022-01-22T13:20:07Z</time>
      </trkpt>
      <trkpt lat="44.56831" lon="1.7428">
        <ele>278.76</ele>
        <time>2022-01-22T13:20:22Z</time>
      </trkpt>
      <trkpt lat="44.56823" lon="1.74296">
        <ele>275.71</ele>
        <time>2022-01-22T13:20:48Z</time>
      </trkpt>
      <trkpt lat="44.56818" lon="1.74311">
        <ele>274.46</ele>
        <time>2022-01-22T13:21:21Z</time>
      </trkpt>
      <trkpt lat="44.56814" lon="1.74323">
        <ele>271.86</ele>
        <time>2022-01-22T13:21:45Z</time>
      </trkpt>
      <trkpt lat="44.5681" lon="1.74345">
        <ele>268.8</ele>
        <time>2022-01-22T13:22:03Z</time>
      </trkpt>
      <trkpt lat="44.56806" lon="1.74382">
        <ele>265.67</ele>
        <time>2022-01-22T13:22:20Z</time>
      </trkpt>
      <trkpt lat="44.56799" lon="1.74415">
        <ele>262.59</ele>
        <time>2022-01-22T13:22:41Z</time>
      </trkpt>
      <trkpt lat="44.56786" lon="1.74446">
        <ele>260.03</ele>
        <time>2022-01-22T13:23:01Z</time>
      </trkpt>
      <trkpt lat="44.56779" lon="1.74459">
        <ele>258.6</ele>
        <time>2022-01-22T13:23:28Z</time>
      </trkpt>
      <trkpt lat="44.56767" lon="1.74457">
        <ele>258.18</ele>
        <time>2022-01-22T13:24:18Z</time>
      </trkpt>
      <trkpt lat="44.56769" lon="1.74455">
        <ele>258.32</ele>
        <time>2022-01-22T13:25:33Z</time>
      </trkpt>
      <trkpt lat="44.56767" lon="1.74455">
        <ele>258.74</ele>
        <time>2022-01-22T13:26:19Z</time>
      </trkpt>
      <trkpt lat="44.56764" lon="1.74456">
        <ele>258.77</ele>
        <time>2022-01-22T13:26:25Z</time>
      </trkpt>
      <trkpt lat="44.56767" lon="1.7448">
        <ele>258.05</ele>
        <time>2022-01-22T13:26:46Z</time>
      </trkpt>
      <trkpt lat="44.56766" lon="1.74496">
        <ele>256.78</ele>
        <time>2022-01-22T13:26:57Z</time>
      </trkpt>
      <trkpt lat="44.56757" lon="1.74521">
        <ele>254.45</ele>
        <time>2022-01-22T13:27:13Z</time>
      </trkpt>
      <trkpt lat="44.56748" lon="1.74544">
        <ele>251.78</ele>
        <time>2022-01-22T13:27:29Z</time>
      </trkpt>
      <trkpt lat="44.56747" lon="1.74546">
        <ele>251.72</ele>
        <time>2022-01-22T13:27:30Z</time>
      </trkpt>
      <trkpt lat="44.56729" lon="1.74568">
        <ele>249.4</ele>
        <time>2022-01-22T13:27:47Z</time>
      </trkpt>
      <trkpt lat="44.56716" lon="1.74583">
        <ele>247.5</ele>
        <time>2022-01-22T13:28:01Z</time>
      </trkpt>
      <trkpt lat="44.5669" lon="1.74613">
        <ele>245.74</ele>
        <time>2022-01-22T13:28:24Z</time>
      </trkpt>
      <trkpt lat="44.5667" lon="1.74641">
        <ele>244.4</ele>
        <time>2022-01-22T13:28:45Z</time>
      </trkpt>
      <trkpt lat="44.56659" lon="1.74665">
        <ele>243.26</ele>
        <time>2022-01-22T13:29:00Z</time>
      </trkpt>
      <trkpt lat="44.56658" lon="1.74666">
        <ele>243.2</ele>
        <time>2022-01-22T13:29:01Z</time>
      </trkpt>
      <trkpt lat="44.56655" lon="1.74672">
        <ele>242.91</ele>
        <time>2022-01-22T13:29:05Z</time>
      </trkpt>
      <trkpt lat="44.56639" lon="1.7469">
        <ele>242.43</ele>
        <time>2022-01-22T13:29:22Z</time>
      </trkpt>
      <trkpt lat="44.5663" lon="1.74709">
        <ele>241.95</ele>
        <time>2022-01-22T13:29:36Z</time>
      </trkpt>
      <trkpt lat="44.56619" lon="1.74733">
        <ele>241.65</ele>
        <time>2022-01-22T13:29:52Z</time>
      </trkpt>
      <trkpt lat="44.56619" lon="1.74734">
        <ele>241.65</ele>
        <time>2022-01-22T13:29:53Z</time>
      </trkpt>
      <trkpt lat="44.56606" lon="1.74761">
        <ele>241.14</ele>
        <time>2022-01-22T13:30:12Z</time>
      </trkpt>
      <trkpt lat="44.56592" lon="1.74783">
        <ele>239.55</ele>
        <time>2022-01-22T13:30:32Z</time>
      </trkpt>
      <trkpt lat="44.56588" lon="1.74808">
        <ele>238.39</ele>
        <time>2022-01-22T13:30:55Z</time>
      </trkpt>
      <trkpt lat="44.56581" lon="1.74836">
        <ele>236.09</ele>
        <time>2022-01-22T13:31:11Z</time>
      </trkpt>
      <trkpt lat="44.56577" lon="1.74868">
        <ele>233.78</ele>
        <time>2022-01-22T13:31:29Z</time>
      </trkpt>
      <trkpt lat="44.56571" lon="1.74896">
        <ele>231.13</ele>
        <time>2022-01-22T13:31:45Z</time>
      </trkpt>
      <trkpt lat="44.56562" lon="1.74921">
        <ele>228.58</ele>
        <time>2022-01-22T13:32:03Z</time>
      </trkpt>
      <trkpt lat="44.56561" lon="1.74927">
        <ele>228.23</ele>
        <time>2022-01-22T13:32:06Z</time>
      </trkpt>
      <trkpt lat="44.56551" lon="1.74948">
        <ele>225.96</ele>
        <time>2022-01-22T13:32:20Z</time>
      </trkpt>
      <trkpt lat="44.56539" lon="1.74969">
        <ele>222.86</ele>
        <time>2022-01-22T13:32:37Z</time>
      </trkpt>
      <trkpt lat="44.56532" lon="1.74996">
        <ele>221.43</ele>
        <time>2022-01-22T13:32:51Z</time>
      </trkpt>
      <trkpt lat="44.56521" lon="1.75019">
        <ele>220.25</ele>
        <time>2022-01-22T13:33:05Z</time>
      </trkpt>
      <trkpt lat="44.56512" lon="1.75042">
        <ele>219.05</ele>
        <time>2022-01-22T13:33:20Z</time>
      </trkpt>
      <trkpt lat="44.56504" lon="1.75067">
        <ele>218.17</ele>
        <time>2022-01-22T13:33:35Z</time>
      </trkpt>
      <trkpt lat="44.5649" lon="1.75094">
        <ele>216.72</ele>
        <time>2022-01-22T13:33:53Z</time>
      </trkpt>
      <trkpt lat="44.56479" lon="1.75114">
        <ele>216.44</ele>
        <time>2022-01-22T13:34:07Z</time>
      </trkpt>
      <trkpt lat="44.56473" lon="1.75128">
        <ele>215.62</ele>
        <time>2022-01-22T13:34:25Z</time>
      </trkpt>
      <trkpt lat="44.56469" lon="1.75137">
        <ele>215.52</ele>
        <time>2022-01-22T13:34:56Z</time>
      </trkpt>
      <trkpt lat="44.56478" lon="1.7515">
        <ele>214.4</ele>
        <time>2022-01-22T13:35:15Z</time>
      </trkpt>
      <trkpt lat="44.56481" lon="1.75161">
        <ele>213.89</ele>
        <time>2022-01-22T13:35:56Z</time>
      </trkpt>
      <trkpt lat="44.56477" lon="1.75164">
        <ele>212.86</ele>
        <time>2022-01-22T13:36:25Z</time>
      </trkpt>
      <trkpt lat="44.56464" lon="1.75166">
        <ele>211.44</ele>
        <time>2022-01-22T13:36:41Z</time>
      </trkpt>
      <trkpt lat="44.56448" lon="1.75169">
        <ele>210.09</ele>
        <time>2022-01-22T13:36:58Z</time>
      </trkpt>
      <trkpt lat="44.56447" lon="1.7517">
        <ele>209.69</ele>
        <time>2022-01-22T13:37:01Z</time>
      </trkpt>
      <trkpt lat="44.5645" lon="1.75176">
        <ele>208.55</ele>
        <time>2022-01-22T13:37:06Z</time>
      </trkpt>
      <trkpt lat="44.56453" lon="1.75177">
        <ele>208.09</ele>
        <time>2022-01-22T13:37:08Z</time>
      </trkpt>
      <trkpt lat="44.5646" lon="1.75186">
        <ele>206.86</ele>
        <time>2022-01-22T13:37:15Z</time>
      </trkpt>
      <trkpt lat="44.56466" lon="1.75194">
        <ele>205.68</ele>
        <time>2022-01-22T13:37:21Z</time>
      </trkpt>
      <trkpt lat="44.5647" lon="1.75198">
        <ele>205.06</ele>
        <time>2022-01-22T13:37:25Z</time>
      </trkpt>
      <trkpt lat="44.56476" lon="1.75207">
        <ele>203.95</ele>
        <time>2022-01-22T13:37:32Z</time>
      </trkpt>
      <trkpt lat="44.56488" lon="1.75216">
        <ele>201.27</ele>
        <time>2022-01-22T13:37:48Z</time>
      </trkpt>
      <trkpt lat="44.56497" lon="1.75219">
        <ele>200.91</ele>
        <time>2022-01-22T13:37:56Z</time>
      </trkpt>
      <trkpt lat="44.56508" lon="1.75234">
        <ele>199.4</ele>
        <time>2022-01-22T13:38:11Z</time>
      </trkpt>
      <trkpt lat="44.56525" lon="1.75256">
        <ele>197.6</ele>
        <time>2022-01-22T13:38:32Z</time>
      </trkpt>
      <trkpt lat="44.56536" lon="1.75258">
        <ele>195.15</ele>
        <time>2022-01-22T13:38:52Z</time>
      </trkpt>
      <trkpt lat="44.56557" lon="1.7525">
        <ele>193.98</ele>
        <time>2022-01-22T13:39:11Z</time>
      </trkpt>
      <trkpt lat="44.56565" lon="1.75248">
        <ele>192.02</ele>
        <time>2022-01-22T13:39:28Z</time>
      </trkpt>
      <trkpt lat="44.56562" lon="1.75254">
        <ele>190.85</ele>
        <time>2022-01-22T13:39:47Z</time>
      </trkpt>
      <trkpt lat="44.56565" lon="1.75247">
        <ele>190.78</ele>
        <time>2022-01-22T13:39:56Z</time>
      </trkpt>
      <trkpt lat="44.56574" lon="1.75237">
        <ele>190.71</ele>
        <time>2022-01-22T13:40:05Z</time>
      </trkpt>
      <trkpt lat="44.56588" lon="1.75228">
        <ele>190.26</ele>
        <time>2022-01-22T13:40:15Z</time>
      </trkpt>
      <trkpt lat="44.56602" lon="1.75228">
        <ele>189.68</ele>
        <time>2022-01-22T13:40:23Z</time>
      </trkpt>
      <trkpt lat="44.56612" lon="1.75246">
        <ele>189.3</ele>
        <time>2022-01-22T13:40:34Z</time>
      </trkpt>
      <trkpt lat="44.56599" lon="1.7527">
        <ele>190.2</ele>
        <time>2022-01-22T13:40:52Z</time>
      </trkpt>
      <trkpt lat="44.56589" lon="1.75295">
        <ele>191.93</ele>
        <time>2022-01-22T13:41:08Z</time>
      </trkpt>
      <trkpt lat="44.56576" lon="1.75314">
        <ele>193.79</ele>
        <time>2022-01-22T13:41:24Z</time>
      </trkpt>
      <trkpt lat="44.56561" lon="1.75331">
        <ele>195.8</ele>
        <time>2022-01-22T13:41:41Z</time>
      </trkpt>
      <trkpt lat="44.56546" lon="1.75352">
        <ele>197.79</ele>
        <time>2022-01-22T13:41:59Z</time>
      </trkpt>
      <trkpt lat="44.56531" lon="1.75367">
        <ele>199.59</ele>
        <time>2022-01-22T13:42:17Z</time>
      </trkpt>
      <trkpt lat="44.56507" lon="1.75382">
        <ele>202.35</ele>
        <time>2022-01-22T13:42:39Z</time>
      </trkpt>
      <trkpt lat="44.56485" lon="1.75389">
        <ele>204.46</ele>
        <time>2022-01-22T13:42:57Z</time>
      </trkpt>
      <trkpt lat="44.56466" lon="1.75393">
        <ele>205.76</ele>
        <time>2022-01-22T13:43:13Z</time>
      </trkpt>
      <trkpt lat="44.56447" lon="1.75394">
        <ele>208.07</ele>
        <time>2022-01-22T13:43:31Z</time>
      </trkpt>
      <trkpt lat="44.56424" lon="1.75395">
        <ele>210.22</ele>
        <time>2022-01-22T13:43:49Z</time>
      </trkpt>
      <trkpt lat="44.56409" lon="1.75395">
        <ele>212.42</ele>
        <time>2022-01-22T13:44:02Z</time>
      </trkpt>
      <trkpt lat="44.56392" lon="1.75406">
        <ele>214.63</ele>
        <time>2022-01-22T13:44:20Z</time>
      </trkpt>
      <trkpt lat="44.56391" lon="1.75407">
        <ele>214.91</ele>
        <time>2022-01-22T13:44:22Z</time>
      </trkpt>
      <trkpt lat="44.56384" lon="1.75413">
        <ele>215.97</ele>
        <time>2022-01-22T13:44:29Z</time>
      </trkpt>
      <trkpt lat="44.56375" lon="1.75428">
        <ele>218.59</ele>
        <time>2022-01-22T13:44:48Z</time>
      </trkpt>
      <trkpt lat="44.56369" lon="1.75443">
        <ele>219.88</ele>
        <time>2022-01-22T13:45:06Z</time>
      </trkpt>
      <trkpt lat="44.5636" lon="1.75455">
        <ele>221.21</ele>
        <time>2022-01-22T13:45:24Z</time>
      </trkpt>
      <trkpt lat="44.56343" lon="1.75483">
        <ele>224.29</ele>
        <time>2022-01-22T13:45:47Z</time>
      </trkpt>
      <trkpt lat="44.56329" lon="1.75509">
        <ele>226.48</ele>
        <time>2022-01-22T13:46:06Z</time>
      </trkpt>
      <trkpt lat="44.56317" lon="1.75525">
        <ele>227.73</ele>
        <time>2022-01-22T13:46:23Z</time>
      </trkpt>
      <trkpt lat="44.56303" lon="1.75549">
        <ele>229.19</ele>
        <time>2022-01-22T13:46:41Z</time>
      </trkpt>
      <trkpt lat="44.56292" lon="1.75566">
        <ele>230.97</ele>
        <time>2022-01-22T13:46:55Z</time>
      </trkpt>
      <trkpt lat="44.56287" lon="1.75573">
        <ele>231.44</ele>
        <time>2022-01-22T13:47:01Z</time>
      </trkpt>
      <trkpt lat="44.56268" lon="1.756">
        <ele>232.69</ele>
        <time>2022-01-22T13:47:22Z</time>
      </trkpt>
      <trkpt lat="44.56261" lon="1.75608">
        <ele>234.23</ele>
        <time>2022-01-22T13:47:39Z</time>
      </trkpt>
      <trkpt lat="44.56258" lon="1.75608">
        <ele>234.47</ele>
        <time>2022-01-22T13:48:09Z</time>
      </trkpt>
      <trkpt lat="44.56248" lon="1.75627">
        <ele>234.74</ele>
        <time>2022-01-22T13:48:30Z</time>
      </trkpt>
      <trkpt lat="44.56239" lon="1.75645">
        <ele>236.03</ele>
        <time>2022-01-22T13:48:41Z</time>
      </trkpt>
      <trkpt lat="44.56238" lon="1.75646">
        <ele>236.15</ele>
        <time>2022-01-22T13:48:42Z</time>
      </trkpt>
      <trkpt lat="44.56238" lon="1.75648">
        <ele>236.24</ele>
        <time>2022-01-22T13:48:43Z</time>
      </trkpt>
      <trkpt lat="44.56237" lon="1.75649">
        <ele>236.29</ele>
        <time>2022-01-22T13:48:44Z</time>
      </trkpt>
      <trkpt lat="44.56235" lon="1.7565">
        <ele>236.42</ele>
        <time>2022-01-22T13:48:45Z</time>
      </trkpt>
      <trkpt lat="44.56235" lon="1.75652">
        <ele>236.57</ele>
        <time>2022-01-22T13:48:46Z</time>
      </trkpt>
      <trkpt lat="44.56234" lon="1.75654">
        <ele>236.7</ele>
        <time>2022-01-22T13:48:47Z</time>
      </trkpt>
      <trkpt lat="44.56233" lon="1.75655">
        <ele>236.77</ele>
        <time>2022-01-22T13:48:48Z</time>
      </trkpt>
      <trkpt lat="44.56224" lon="1.75677">
        <ele>238.05</ele>
        <time>2022-01-22T13:49:02Z</time>
      </trkpt>
      <trkpt lat="44.56214" lon="1.75697">
        <ele>239.69</ele>
        <time>2022-01-22T13:49:16Z</time>
      </trkpt>
      <trkpt lat="44.56202" lon="1.75722">
        <ele>242.18</ele>
        <time>2022-01-22T13:49:34Z</time>
      </trkpt>
      <trkpt lat="44.56188" lon="1.75749">
        <ele>243.45</ele>
        <time>2022-01-22T13:49:52Z</time>
      </trkpt>
      <trkpt lat="44.56176" lon="1.75774">
        <ele>244.18</ele>
        <time>2022-01-22T13:50:09Z</time>
      </trkpt>
      <trkpt lat="44.56176" lon="1.75775">
        <ele>244.25</ele>
        <time>2022-01-22T13:50:10Z</time>
      </trkpt>
      <trkpt lat="44.56179" lon="1.7578">
        <ele>244.83</ele>
        <time>2022-01-22T13:50:18Z</time>
      </trkpt>
      <trkpt lat="44.5618" lon="1.75779">
        <ele>244.94</ele>
        <time>2022-01-22T13:50:19Z</time>
      </trkpt>
      <trkpt lat="44.56184" lon="1.75784">
        <ele>247.09</ele>
        <time>2022-01-22T13:50:36Z</time>
      </trkpt>
      <trkpt lat="44.56188" lon="1.75789">
        <ele>247.7</ele>
        <time>2022-01-22T13:50:47Z</time>
      </trkpt>
      <trkpt lat="44.5619" lon="1.75789">
        <ele>247.72</ele>
        <time>2022-01-22T13:50:48Z</time>
      </trkpt>
      <trkpt lat="44.56197" lon="1.7579">
        <ele>249.35</ele>
        <time>2022-01-22T13:51:03Z</time>
      </trkpt>
      <trkpt lat="44.56195" lon="1.75785">
        <ele>249.59</ele>
        <time>2022-01-22T13:51:55Z</time>
      </trkpt>
      <trkpt lat="44.5619" lon="1.75782">
        <ele>249.76</ele>
        <time>2022-01-22T13:52:56Z</time>
      </trkpt>
      <trkpt lat="44.56186" lon="1.75779">
        <ele>249.61</ele>
        <time>2022-01-22T13:53:38Z</time>
      </trkpt>
      <trkpt lat="44.56184" lon="1.75776">
        <ele>248.37</ele>
        <time>2022-01-22T13:53:46Z</time>
      </trkpt>
      <trkpt lat="44.56169" lon="1.75782">
        <ele>246.39</ele>
        <time>2022-01-22T13:54:01Z</time>
      </trkpt>
      <trkpt lat="44.56171" lon="1.75787">
        <ele>246.19</ele>
        <time>2022-01-22T13:54:29Z</time>
      </trkpt>
      <trkpt lat="44.5617" lon="1.75786">
        <ele>247.15</ele>
        <time>2022-01-22T13:55:41Z</time>
      </trkpt>
      <trkpt lat="44.56165" lon="1.75794">
        <ele>247.12</ele>
        <time>2022-01-22T13:56:07Z</time>
      </trkpt>
      <trkpt lat="44.5615" lon="1.75819">
        <ele>248.43</ele>
        <time>2022-01-22T13:56:26Z</time>
      </trkpt>
      <trkpt lat="44.56137" lon="1.75841">
        <ele>249.47</ele>
        <time>2022-01-22T13:56:41Z</time>
      </trkpt>
      <trkpt lat="44.56128" lon="1.75853">
        <ele>250.25</ele>
        <time>2022-01-22T13:56:51Z</time>
      </trkpt>
      <trkpt lat="44.56111" lon="1.7587">
        <ele>251.22</ele>
        <time>2022-01-22T13:57:08Z</time>
      </trkpt>
      <trkpt lat="44.56105" lon="1.75879">
        <ele>252.01</ele>
        <time>2022-01-22T13:57:15Z</time>
      </trkpt>
      <trkpt lat="44.56093" lon="1.75894">
        <ele>253.34</ele>
        <time>2022-01-22T13:57:28Z</time>
      </trkpt>
      <trkpt lat="44.56079" lon="1.7591">
        <ele>255.24</ele>
        <time>2022-01-22T13:57:44Z</time>
      </trkpt>
      <trkpt lat="44.56074" lon="1.75916">
        <ele>255.82</ele>
        <time>2022-01-22T13:57:51Z</time>
      </trkpt>
      <trkpt lat="44.5605" lon="1.75936">
        <ele>258.01</ele>
        <time>2022-01-22T13:58:11Z</time>
      </trkpt>
      <trkpt lat="44.56033" lon="1.75954">
        <ele>260.1</ele>
        <time>2022-01-22T13:58:29Z</time>
      </trkpt>
      <trkpt lat="44.56021" lon="1.75976">
        <ele>261.62</ele>
        <time>2022-01-22T13:58:45Z</time>
      </trkpt>
      <trkpt lat="44.56015" lon="1.7599">
        <ele>262.62</ele>
        <time>2022-01-22T13:58:58Z</time>
      </trkpt>
      <trkpt lat="44.56012" lon="1.75992">
        <ele>262.79</ele>
        <time>2022-01-22T13:59:02Z</time>
      </trkpt>
      <trkpt lat="44.56004" lon="1.76">
        <ele>263.4</ele>
        <time>2022-01-22T13:59:09Z</time>
      </trkpt>
      <trkpt lat="44.55989" lon="1.76025">
        <ele>264.9</ele>
        <time>2022-01-22T13:59:27Z</time>
      </trkpt>
      <trkpt lat="44.55981" lon="1.76039">
        <ele>265.43</ele>
        <time>2022-01-22T13:59:37Z</time>
      </trkpt>
      <trkpt lat="44.55967" lon="1.76057">
        <ele>265.92</ele>
        <time>2022-01-22T13:59:52Z</time>
      </trkpt>
      <trkpt lat="44.55965" lon="1.76059">
        <ele>265.95</ele>
        <time>2022-01-22T13:59:54Z</time>
      </trkpt>
      <trkpt lat="44.5595" lon="1.76079">
        <ele>266.2</ele>
        <time>2022-01-22T14:00:11Z</time>
      </trkpt>
      <trkpt lat="44.55932" lon="1.7609">
        <ele>266.46</ele>
        <time>2022-01-22T14:00:24Z</time>
      </trkpt>
      <trkpt lat="44.5591" lon="1.76107">
        <ele>266.76</ele>
        <time>2022-01-22T14:00:40Z</time>
      </trkpt>
      <trkpt lat="44.55891" lon="1.76112">
        <ele>266.87</ele>
        <time>2022-01-22T14:00:55Z</time>
      </trkpt>
      <trkpt lat="44.5588" lon="1.76113">
        <ele>266.83</ele>
        <time>2022-01-22T14:01:09Z</time>
      </trkpt>
      <trkpt lat="44.55861" lon="1.76116">
        <ele>266.4</ele>
        <time>2022-01-22T14:01:23Z</time>
      </trkpt>
      <trkpt lat="44.55844" lon="1.76115">
        <ele>265.4</ele>
        <time>2022-01-22T14:01:39Z</time>
      </trkpt>
      <trkpt lat="44.55843" lon="1.76112">
        <ele>265.23</ele>
        <time>2022-01-22T14:01:43Z</time>
      </trkpt>
      <trkpt lat="44.55838" lon="1.76095">
        <ele>264.31</ele>
        <time>2022-01-22T14:01:57Z</time>
      </trkpt>
      <trkpt lat="44.55822" lon="1.76086">
        <ele>263.3</ele>
        <time>2022-01-22T14:02:12Z</time>
      </trkpt>
      <trkpt lat="44.55814" lon="1.76065">
        <ele>261.89</ele>
        <time>2022-01-22T14:02:31Z</time>
      </trkpt>
      <trkpt lat="44.55814" lon="1.76064">
        <ele>261.1</ele>
        <time>2022-01-22T14:02:58Z</time>
      </trkpt>
      <trkpt lat="44.55812" lon="1.76064">
        <ele>261.08</ele>
        <time>2022-01-22T14:03:20Z</time>
      </trkpt>
      <trkpt lat="44.5581" lon="1.76064">
        <ele>261.73</ele>
        <time>2022-01-22T14:03:30Z</time>
      </trkpt>
      <trkpt lat="44.55811" lon="1.76067">
        <ele>261.07</ele>
        <time>2022-01-22T14:03:56Z</time>
      </trkpt>
      <trkpt lat="44.55815" lon="1.76065">
        <ele>261.22</ele>
        <time>2022-01-22T14:04:23Z</time>
      </trkpt>
      <trkpt lat="44.55818" lon="1.76066">
        <ele>261.3</ele>
        <time>2022-01-22T14:04:30Z</time>
      </trkpt>
      <trkpt lat="44.55822" lon="1.76083">
        <ele>261.99</ele>
        <time>2022-01-22T14:04:48Z</time>
      </trkpt>
      <trkpt lat="44.55824" lon="1.76085">
        <ele>262.06</ele>
        <time>2022-01-22T14:04:51Z</time>
      </trkpt>
      <trkpt lat="44.5583" lon="1.7609">
        <ele>262.55</ele>
        <time>2022-01-22T14:05:07Z</time>
      </trkpt>
      <trkpt lat="44.5584" lon="1.76102">
        <ele>262.79</ele>
        <time>2022-01-22T14:05:44Z</time>
      </trkpt>
      <trkpt lat="44.55852" lon="1.76121">
        <ele>264.25</ele>
        <time>2022-01-22T14:05:59Z</time>
      </trkpt>
      <trkpt lat="44.55852" lon="1.76123">
        <ele>264.28</ele>
        <time>2022-01-22T14:06:00Z</time>
      </trkpt>
      <trkpt lat="44.55859" lon="1.76127">
        <ele>264.4</ele>
        <time>2022-01-22T14:06:06Z</time>
      </trkpt>
      <trkpt lat="44.55879" lon="1.76122">
        <ele>265.44</ele>
        <time>2022-01-22T14:06:21Z</time>
      </trkpt>
      <trkpt lat="44.5588" lon="1.76122">
        <ele>265.48</ele>
        <time>2022-01-22T14:06:22Z</time>
      </trkpt>
      <trkpt lat="44.55898" lon="1.76111">
        <ele>266.31</ele>
        <time>2022-01-22T14:06:41Z</time>
      </trkpt>
      <trkpt lat="44.55901" lon="1.76116">
        <ele>289.4</ele>
      </trkpt>
      <trkpt lat="44.55901" lon="1.76115">
        <ele>266.46</ele>
        <time>2022-01-22T14:08:14Z</time>
      </trkpt>
      <trkpt lat="44.55904" lon="1.76131">
        <ele>266.43</ele>
        <time>2022-01-22T14:08:29Z</time>
      </trkpt>
      <trkpt lat="44.55891" lon="1.76162">
        <ele>265.72</ele>
        <time>2022-01-22T14:08:50Z</time>
      </trkpt>
      <trkpt lat="44.55886" lon="1.7617">
        <ele>265.55</ele>
        <time>2022-01-22T14:08:56Z</time>
      </trkpt>
      <trkpt lat="44.55879" lon="1.76177">
        <ele>265.34</ele>
        <time>2022-01-22T14:09:03Z</time>
      </trkpt>
      <trkpt lat="44.5587" lon="1.76202">
        <ele>264.87</ele>
        <time>2022-01-22T14:09:19Z</time>
      </trkpt>
      <trkpt lat="44.55861" lon="1.76225">
        <ele>264.22</ele>
        <time>2022-01-22T14:09:34Z</time>
      </trkpt>
      <trkpt lat="44.55858" lon="1.76231">
        <ele>264.05</ele>
        <time>2022-01-22T14:09:38Z</time>
      </trkpt>
      <trkpt lat="44.55845" lon="1.76254">
        <ele>263.38</ele>
        <time>2022-01-22T14:09:55Z</time>
      </trkpt>
      <trkpt lat="44.55833" lon="1.7629">
        <ele>262.39</ele>
        <time>2022-01-22T14:10:16Z</time>
      </trkpt>
      <trkpt lat="44.55825" lon="1.76315">
        <ele>261.78</ele>
        <time>2022-01-22T14:10:31Z</time>
      </trkpt>
      <trkpt lat="44.55808" lon="1.76345">
        <ele>260.28</ele>
        <time>2022-01-22T14:10:51Z</time>
      </trkpt>
      <trkpt lat="44.55797" lon="1.76372">
        <ele>258.97</ele>
        <time>2022-01-22T14:11:08Z</time>
      </trkpt>
      <trkpt lat="44.55789" lon="1.76396">
        <ele>257.43</ele>
        <time>2022-01-22T14:11:24Z</time>
      </trkpt>
      <trkpt lat="44.55785" lon="1.76429">
        <ele>255.6</ele>
        <time>2022-01-22T14:11:43Z</time>
      </trkpt>
      <trkpt lat="44.55784" lon="1.76439">
        <ele>254.28</ele>
        <time>2022-01-22T14:12:01Z</time>
      </trkpt>
      <trkpt lat="44.55783" lon="1.7644">
        <ele>254.24</ele>
        <time>2022-01-22T14:12:04Z</time>
      </trkpt>
      <trkpt lat="44.5578" lon="1.76448">
        <ele>254.2</ele>
        <time>2022-01-22T14:12:09Z</time>
      </trkpt>
      <trkpt lat="44.55768" lon="1.76473">
        <ele>252.84</ele>
        <time>2022-01-22T14:12:27Z</time>
      </trkpt>
      <trkpt lat="44.55756" lon="1.76508">
        <ele>249.69</ele>
        <time>2022-01-22T14:12:49Z</time>
      </trkpt>
      <trkpt lat="44.55755" lon="1.76519">
        <ele>248.05</ele>
        <time>2022-01-22T14:13:02Z</time>
      </trkpt>
      <trkpt lat="44.55754" lon="1.76519">
        <ele>247.83</ele>
        <time>2022-01-22T14:13:05Z</time>
      </trkpt>
      <trkpt lat="44.55755" lon="1.76518">
        <ele>247.62</ele>
        <time>2022-01-22T14:13:19Z</time>
      </trkpt>
      <trkpt lat="44.55753" lon="1.76521">
        <ele>247.08</ele>
        <time>2022-01-22T14:13:39Z</time>
      </trkpt>
      <trkpt lat="44.55758" lon="1.76511">
        <ele>247.36</ele>
        <time>2022-01-22T14:13:56Z</time>
      </trkpt>
      <trkpt lat="44.55756" lon="1.76514">
        <ele>247.91</ele>
        <time>2022-01-22T14:14:16Z</time>
      </trkpt>
      <trkpt lat="44.55754" lon="1.76512">
        <ele>247.52</ele>
        <time>2022-01-22T14:14:43Z</time>
      </trkpt>
      <trkpt lat="44.55749" lon="1.76511">
        <ele>247.48</ele>
        <time>2022-01-22T14:14:47Z</time>
      </trkpt>
      <trkpt lat="44.55731" lon="1.76488">
        <ele>247.49</ele>
        <time>2022-01-22T14:15:05Z</time>
      </trkpt>
      <trkpt lat="44.55719" lon="1.76475">
        <ele>247.88</ele>
        <time>2022-01-22T14:15:17Z</time>
      </trkpt>
      <trkpt lat="44.55711" lon="1.76467">
        <ele>247.94</ele>
        <time>2022-01-22T14:15:26Z</time>
      </trkpt>
      <trkpt lat="44.5569" lon="1.76447">
        <ele>247.85</ele>
        <time>2022-01-22T14:15:46Z</time>
      </trkpt>
      <trkpt lat="44.55682" lon="1.76433">
        <ele>247.84</ele>
        <time>2022-01-22T14:15:55Z</time>
      </trkpt>
      <trkpt lat="44.55679" lon="1.76425">
        <ele>247.78</ele>
        <time>2022-01-22T14:16:01Z</time>
      </trkpt>
      <trkpt lat="44.55669" lon="1.76414">
        <ele>247.75</ele>
        <time>2022-01-22T14:16:19Z</time>
      </trkpt>
      <trkpt lat="44.55662" lon="1.76403">
        <ele>247.72</ele>
        <time>2022-01-22T14:16:46Z</time>
      </trkpt>
      <trkpt lat="44.55661" lon="1.76401">
        <ele>247.71</ele>
        <time>2022-01-22T14:16:47Z</time>
      </trkpt>
      <trkpt lat="44.55638" lon="1.76382">
        <ele>246.92</ele>
        <time>2022-01-22T14:17:09Z</time>
      </trkpt>
      <trkpt lat="44.55624" lon="1.76369">
        <ele>246.05</ele>
        <time>2022-01-22T14:17:24Z</time>
      </trkpt>
      <trkpt lat="44.55623" lon="1.76368">
        <ele>245.96</ele>
        <time>2022-01-22T14:17:25Z</time>
      </trkpt>
      <trkpt lat="44.55607" lon="1.76349">
        <ele>245.02</ele>
        <time>2022-01-22T14:17:42Z</time>
      </trkpt>
      <trkpt lat="44.55599" lon="1.7634">
        <ele>244.8</ele>
        <time>2022-01-22T14:17:50Z</time>
      </trkpt>
      <trkpt lat="44.55587" lon="1.76327">
        <ele>244.48</ele>
        <time>2022-01-22T14:18:03Z</time>
      </trkpt>
      <trkpt lat="44.55573" lon="1.76311">
        <ele>244.24</ele>
        <time>2022-01-22T14:18:18Z</time>
      </trkpt>
      <trkpt lat="44.55561" lon="1.76299">
        <ele>244.09</ele>
        <time>2022-01-22T14:18:33Z</time>
      </trkpt>
      <trkpt lat="44.55549" lon="1.76279">
        <ele>243.89</ele>
        <time>2022-01-22T14:18:52Z</time>
      </trkpt>
      <trkpt lat="44.55538" lon="1.76263">
        <ele>243.8</ele>
        <time>2022-01-22T14:19:08Z</time>
      </trkpt>
      <trkpt lat="44.5552" lon="1.76244">
        <ele>243.68</ele>
        <time>2022-01-22T14:19:29Z</time>
      </trkpt>
      <trkpt lat="44.55494" lon="1.7622">
        <ele>243.75</ele>
        <time>2022-01-22T14:19:56Z</time>
      </trkpt>
      <trkpt lat="44.55478" lon="1.76199">
        <ele>243.62</ele>
        <time>2022-01-22T14:20:13Z</time>
      </trkpt>
      <trkpt lat="44.55474" lon="1.76193">
        <ele>243.41</ele>
        <time>2022-01-22T14:20:18Z</time>
      </trkpt>
      <trkpt lat="44.55468" lon="1.76178">
        <ele>242.73</ele>
        <time>2022-01-22T14:20:38Z</time>
      </trkpt>
      <trkpt lat="44.55472" lon="1.76178">
        <ele>242.88</ele>
        <time>2022-01-22T14:21:03Z</time>
      </trkpt>
      <trkpt lat="44.55466" lon="1.76179">
        <ele>242.94</ele>
        <time>2022-01-22T14:21:16Z</time>
      </trkpt>
      <trkpt lat="44.55465" lon="1.76179">
        <ele>242.94</ele>
        <time>2022-01-22T14:21:17Z</time>
      </trkpt>
      <trkpt lat="44.55454" lon="1.76166">
        <ele>242.54</ele>
        <time>2022-01-22T14:21:32Z</time>
      </trkpt>
      <trkpt lat="44.55447" lon="1.76162">
        <ele>242.23</ele>
        <time>2022-01-22T14:21:39Z</time>
      </trkpt>
      <trkpt lat="44.55437" lon="1.76148">
        <ele>242.01</ele>
        <time>2022-01-22T14:21:51Z</time>
      </trkpt>
      <trkpt lat="44.5542" lon="1.76142">
        <ele>241.61</ele>
        <time>2022-01-22T14:22:05Z</time>
      </trkpt>
      <trkpt lat="44.55407" lon="1.76142">
        <ele>241.18</ele>
        <time>2022-01-22T14:22:14Z</time>
      </trkpt>
      <trkpt lat="44.55391" lon="1.76136">
        <ele>240.85</ele>
        <time>2022-01-22T14:22:25Z</time>
      </trkpt>
      <trkpt lat="44.55377" lon="1.76133">
        <ele>240.73</ele>
        <time>2022-01-22T14:22:37Z</time>
      </trkpt>
      <trkpt lat="44.5536" lon="1.76133">
        <ele>240.75</ele>
        <time>2022-01-22T14:22:51Z</time>
      </trkpt>
      <trkpt lat="44.55353" lon="1.76132">
        <ele>240.75</ele>
        <time>2022-01-22T14:22:54Z</time>
      </trkpt>
      <trkpt lat="44.55344" lon="1.76128">
        <ele>240.89</ele>
        <time>2022-01-22T14:23:03Z</time>
      </trkpt>
      <trkpt lat="44.55325" lon="1.7613">
        <ele>241.55</ele>
        <time>2022-01-22T14:23:20Z</time>
      </trkpt>
      <trkpt lat="44.55321" lon="1.7613">
        <ele>241.68</ele>
        <time>2022-01-22T14:23:23Z</time>
      </trkpt>
      <trkpt lat="44.55313" lon="1.76119">
        <ele>241.75</ele>
        <time>2022-01-22T14:23:42Z</time>
      </trkpt>
      <trkpt lat="44.55313" lon="1.7612">
        <ele>241.86</ele>
        <time>2022-01-22T14:24:30Z</time>
      </trkpt>
      <trkpt lat="44.55317" lon="1.76108">
        <ele>241.74</ele>
        <time>2022-01-22T14:24:56Z</time>
      </trkpt>
      <trkpt lat="44.55332" lon="1.76068">
        <ele>240.03</ele>
        <time>2022-01-22T14:25:23Z</time>
      </trkpt>
      <trkpt lat="44.5534" lon="1.76035">
        <ele>237.11</ele>
        <time>2022-01-22T14:25:44Z</time>
      </trkpt>
      <trkpt lat="44.5534" lon="1.76031">
        <ele>236.86</ele>
        <time>2022-01-22T14:25:46Z</time>
      </trkpt>
      <trkpt lat="44.55341" lon="1.75984">
        <ele>233.78</ele>
        <time>2022-01-22T14:26:12Z</time>
      </trkpt>
      <trkpt lat="44.55343" lon="1.75968">
        <ele>232.62</ele>
        <time>2022-01-22T14:26:21Z</time>
      </trkpt>
      <trkpt lat="44.5534" lon="1.75952">
        <ele>231.46</ele>
        <time>2022-01-22T14:26:31Z</time>
      </trkpt>
      <trkpt lat="44.55341" lon="1.75948">
        <ele>231.23</ele>
        <time>2022-01-22T14:26:34Z</time>
      </trkpt>
      <trkpt lat="44.55344" lon="1.7594">
        <ele>230.68</ele>
        <time>2022-01-22T14:26:38Z</time>
      </trkpt>
      <trkpt lat="44.55352" lon="1.75917">
        <ele>229.34</ele>
        <time>2022-01-22T14:26:54Z</time>
      </trkpt>
      <trkpt lat="44.55351" lon="1.75891">
        <ele>228.86</ele>
        <time>2022-01-22T14:27:10Z</time>
      </trkpt>
      <trkpt lat="44.55344" lon="1.75865">
        <ele>228.82</ele>
        <time>2022-01-22T14:27:25Z</time>
      </trkpt>
      <trkpt lat="44.55343" lon="1.75855">
        <ele>228.86</ele>
        <time>2022-01-22T14:27:31Z</time>
      </trkpt>
      <trkpt lat="44.55341" lon="1.75835">
        <ele>229.22</ele>
        <time>2022-01-22T14:27:44Z</time>
      </trkpt>
      <trkpt lat="44.55335" lon="1.7582">
        <ele>229.23</ele>
        <time>2022-01-22T14:27:58Z</time>
      </trkpt>
      <trkpt lat="44.55337" lon="1.75805">
        <ele>229.26</ele>
        <time>2022-01-22T14:28:06Z</time>
      </trkpt>
      <trkpt lat="44.55338" lon="1.75788">
        <ele>229.3</ele>
        <time>2022-01-22T14:28:15Z</time>
      </trkpt>
      <trkpt lat="44.55338" lon="1.75764">
        <ele>229.75</ele>
        <time>2022-01-22T14:28:31Z</time>
      </trkpt>
      <trkpt lat="44.55339" lon="1.75754">
        <ele>229.85</ele>
        <time>2022-01-22T14:28:37Z</time>
      </trkpt>
      <trkpt lat="44.55339" lon="1.75746">
        <ele>229.88</ele>
        <time>2022-01-22T14:28:41Z</time>
      </trkpt>
      <trkpt lat="44.5534" lon="1.75735">
        <ele>230.01</ele>
        <time>2022-01-22T14:28:48Z</time>
      </trkpt>
      <trkpt lat="44.55334" lon="1.75708">
        <ele>230.64</ele>
        <time>2022-01-22T14:29:06Z</time>
      </trkpt>
      <trkpt lat="44.55328" lon="1.75683">
        <ele>231.29</ele>
        <time>2022-01-22T14:29:25Z</time>
      </trkpt>
      <trkpt lat="44.55336" lon="1.75651">
        <ele>232.98</ele>
        <time>2022-01-22T14:29:47Z</time>
      </trkpt>
      <trkpt lat="44.5534" lon="1.75638">
        <ele>233.74</ele>
        <time>2022-01-22T14:29:57Z</time>
      </trkpt>
      <trkpt lat="44.5534" lon="1.75607">
        <ele>235.41</ele>
        <time>2022-01-22T14:30:21Z</time>
      </trkpt>
      <trkpt lat="44.55337" lon="1.75591">
        <ele>236.34</ele>
        <time>2022-01-22T14:30:32Z</time>
      </trkpt>
      <trkpt lat="44.55318" lon="1.75568">
        <ele>237.99</ele>
        <time>2022-01-22T14:30:55Z</time>
      </trkpt>
      <trkpt lat="44.55315" lon="1.75573">
        <ele>238.4</ele>
        <time>2022-01-22T14:31:09Z</time>
      </trkpt>
      <trkpt lat="44.55309" lon="1.75569">
        <ele>238.01</ele>
        <time>2022-01-22T14:31:29Z</time>
      </trkpt>
      <trkpt lat="44.55318" lon="1.75551">
        <ele>238.02</ele>
        <time>2022-01-22T14:31:43Z</time>
      </trkpt>
      <trkpt lat="44.55315" lon="1.75522">
        <ele>240.09</ele>
        <time>2022-01-22T14:32:07Z</time>
      </trkpt>
      <trkpt lat="44.55307" lon="1.75519">
        <ele>241.16</ele>
        <time>2022-01-22T14:32:28Z</time>
      </trkpt>
      <trkpt lat="44.55305" lon="1.75513">
        <ele>241.26</ele>
        <time>2022-01-22T14:32:52Z</time>
      </trkpt>
      <trkpt lat="44.55295" lon="1.75493">
        <ele>241.97</ele>
        <time>2022-01-22T14:33:12Z</time>
      </trkpt>
      <trkpt lat="44.55294" lon="1.7549">
        <ele>242.02</ele>
        <time>2022-01-22T14:33:14Z</time>
      </trkpt>
      <trkpt lat="44.55289" lon="1.75453">
        <ele>244.29</ele>
        <time>2022-01-22T14:33:38Z</time>
      </trkpt>
      <trkpt lat="44.55287" lon="1.75449">
        <ele>244.52</ele>
        <time>2022-01-22T14:33:40Z</time>
      </trkpt>
      <trkpt lat="44.55277" lon="1.75427">
        <ele>245.47</ele>
        <time>2022-01-22T14:33:52Z</time>
      </trkpt>
      <trkpt lat="44.55274" lon="1.75405">
        <ele>247.04</ele>
        <time>2022-01-22T14:34:07Z</time>
      </trkpt>
      <trkpt lat="44.55269" lon="1.75378">
        <ele>247.73</ele>
        <time>2022-01-22T14:34:21Z</time>
      </trkpt>
      <trkpt lat="44.55272" lon="1.75371">
        <ele>247.9</ele>
        <time>2022-01-22T14:34:27Z</time>
      </trkpt>
      <trkpt lat="44.55271" lon="1.7536">
        <ele>248.01</ele>
        <time>2022-01-22T14:34:32Z</time>
      </trkpt>
      <trkpt lat="44.55266" lon="1.75341">
        <ele>248.16</ele>
        <time>2022-01-22T14:34:41Z</time>
      </trkpt>
      <trkpt lat="44.55273" lon="1.75318">
        <ele>248.33</ele>
        <time>2022-01-22T14:34:56Z</time>
      </trkpt>
      <trkpt lat="44.55274" lon="1.75315">
        <ele>248.35</ele>
        <time>2022-01-22T14:34:58Z</time>
      </trkpt>
      <trkpt lat="44.55273" lon="1.75302">
        <ele>248.37</ele>
        <time>2022-01-22T14:35:05Z</time>
      </trkpt>
      <trkpt lat="44.55275" lon="1.75296">
        <ele>248.37</ele>
        <time>2022-01-22T14:35:09Z</time>
      </trkpt>
      <trkpt lat="44.55274" lon="1.75291">
        <ele>248.29</ele>
        <time>2022-01-22T14:35:12Z</time>
      </trkpt>
      <trkpt lat="44.55275" lon="1.75277">
        <ele>247.84</ele>
        <time>2022-01-22T14:35:22Z</time>
      </trkpt>
      <trkpt lat="44.55278" lon="1.75264">
        <ele>247.29</ele>
        <time>2022-01-22T14:35:30Z</time>
      </trkpt>
      <trkpt lat="44.55281" lon="1.75251">
        <ele>246.63</ele>
        <time>2022-01-22T14:35:39Z</time>
      </trkpt>
      <trkpt lat="44.55277" lon="1.75234">
        <ele>245.96</ele>
        <time>2022-01-22T14:35:55Z</time>
      </trkpt>
      <trkpt lat="44.55277" lon="1.75199">
        <ele>244.11</ele>
        <time>2022-01-22T14:36:21Z</time>
      </trkpt>
      <trkpt lat="44.5527" lon="1.75188">
        <ele>243.65</ele>
        <time>2022-01-22T14:36:29Z</time>
      </trkpt>
      <trkpt lat="44.5525" lon="1.75181">
        <ele>242.56</ele>
        <time>2022-01-22T14:36:41Z</time>
      </trkpt>
      <trkpt lat="44.55229" lon="1.75175">
        <ele>241</ele>
        <time>2022-01-22T14:36:56Z</time>
      </trkpt>
      <trkpt lat="44.55224" lon="1.75175">
        <ele>240.88</ele>
        <time>2022-01-22T14:36:59Z</time>
      </trkpt>
      <trkpt lat="44.55205" lon="1.75175">
        <ele>239.64</ele>
        <time>2022-01-22T14:37:14Z</time>
      </trkpt>
      <trkpt lat="44.55204" lon="1.75175">
        <ele>239.6</ele>
        <time>2022-01-22T14:37:15Z</time>
      </trkpt>
      <trkpt lat="44.55198" lon="1.75168">
        <ele>238.92</ele>
        <time>2022-01-22T14:37:23Z</time>
      </trkpt>
      <trkpt lat="44.55185" lon="1.75158">
        <ele>237.41</ele>
        <time>2022-01-22T14:37:38Z</time>
      </trkpt>
      <trkpt lat="44.55183" lon="1.75155">
        <ele>237.24</ele>
        <time>2022-01-22T14:37:41Z</time>
      </trkpt>
      <trkpt lat="44.55167" lon="1.75144">
        <ele>235.71</ele>
        <time>2022-01-22T14:37:55Z</time>
      </trkpt>
      <trkpt lat="44.55167" lon="1.75139">
        <ele>235.46</ele>
        <time>2022-01-22T14:37:58Z</time>
      </trkpt>
      <trkpt lat="44.55182" lon="1.75107">
        <ele>232.99</ele>
        <time>2022-01-22T14:38:22Z</time>
      </trkpt>
      <trkpt lat="44.55183" lon="1.75096">
        <ele>232.85</ele>
        <time>2022-01-22T14:39:14Z</time>
      </trkpt>
      <trkpt lat="44.55181" lon="1.7509">
        <ele>232.82</ele>
        <time>2022-01-22T14:40:04Z</time>
      </trkpt>
      <trkpt lat="44.55176" lon="1.75087">
        <ele>232.58</ele>
        <time>2022-01-22T14:40:33Z</time>
      </trkpt>
      <trkpt lat="44.55176" lon="1.75098">
        <ele>232.14</ele>
        <time>2022-01-22T14:41:01Z</time>
      </trkpt>
      <trkpt lat="44.55177" lon="1.75103">
        <ele>232.19</ele>
        <time>2022-01-22T14:41:19Z</time>
      </trkpt>
      <trkpt lat="44.55175" lon="1.75092">
        <ele>232.19</ele>
        <time>2022-01-22T14:41:22Z</time>
      </trkpt>
      <trkpt lat="44.55176" lon="1.75089">
        <ele>232.19</ele>
        <time>2022-01-22T14:41:24Z</time>
      </trkpt>
      <trkpt lat="44.55158" lon="1.75089">
        <ele>231.88</ele>
        <time>2022-01-22T14:41:37Z</time>
      </trkpt>
      <trkpt lat="44.55156" lon="1.7509">
        <ele>231.8</ele>
        <time>2022-01-22T14:41:39Z</time>
      </trkpt>
      <trkpt lat="44.5514" lon="1.7509">
        <ele>231.49</ele>
        <time>2022-01-22T14:41:51Z</time>
      </trkpt>
      <trkpt lat="44.5512" lon="1.75097">
        <ele>230.22</ele>
        <time>2022-01-22T14:42:07Z</time>
      </trkpt>
      <trkpt lat="44.55116" lon="1.75097">
        <ele>230.06</ele>
        <time>2022-01-22T14:42:10Z</time>
      </trkpt>
      <trkpt lat="44.5511" lon="1.75101">
        <ele>229.88</ele>
        <time>2022-01-22T14:42:14Z</time>
      </trkpt>
      <trkpt lat="44.551" lon="1.75098">
        <ele>229.36</ele>
        <time>2022-01-22T14:42:21Z</time>
      </trkpt>
      <trkpt lat="44.55086" lon="1.751">
        <ele>228.3</ele>
        <time>2022-01-22T14:42:35Z</time>
      </trkpt>
      <trkpt lat="44.55076" lon="1.75101">
        <ele>227.63</ele>
        <time>2022-01-22T14:42:45Z</time>
      </trkpt>
      <trkpt lat="44.55064" lon="1.75096">
        <ele>227.3</ele>
        <time>2022-01-22T14:42:58Z</time>
      </trkpt>
      <trkpt lat="44.55069" lon="1.75083">
        <ele>227.13</ele>
        <time>2022-01-22T14:43:20Z</time>
      </trkpt>
      <trkpt lat="44.55069" lon="1.75078">
        <ele>226.81</ele>
        <time>2022-01-22T14:43:24Z</time>
      </trkpt>
      <trkpt lat="44.55075" lon="1.7505">
        <ele>224.5</ele>
        <time>2022-01-22T14:43:45Z</time>
      </trkpt>
      <trkpt lat="44.55078" lon="1.7502">
        <ele>221.92</ele>
        <time>2022-01-22T14:44:08Z</time>
      </trkpt>
      <trkpt lat="44.55081" lon="1.74992">
        <ele>219.21</ele>
        <time>2022-01-22T14:44:29Z</time>
      </trkpt>
      <trkpt lat="44.5508" lon="1.74969">
        <ele>216.14</ele>
        <time>2022-01-22T14:44:49Z</time>
      </trkpt>
      <trkpt lat="44.55088" lon="1.74942">
        <ele>212.99</ele>
        <time>2022-01-22T14:45:10Z</time>
      </trkpt>
      <trkpt lat="44.55099" lon="1.74935">
        <ele>211.26</ele>
        <time>2022-01-22T14:45:22Z</time>
      </trkpt>
      <trkpt lat="44.55113" lon="1.74928">
        <ele>207.86</ele>
        <time>2022-01-22T14:45:37Z</time>
      </trkpt>
      <trkpt lat="44.5512" lon="1.74926">
        <ele>206.32</ele>
        <time>2022-01-22T14:45:45Z</time>
      </trkpt>
      <trkpt lat="44.55124" lon="1.7493">
        <ele>204.44</ele>
        <time>2022-01-22T14:45:58Z</time>
      </trkpt>
      <trkpt lat="44.55122" lon="1.74936">
        <ele>203.73</ele>
        <time>2022-01-22T14:46:02Z</time>
      </trkpt>
      <trkpt lat="44.55115" lon="1.74935">
        <ele>199.99</ele>
        <time>2022-01-22T14:46:17Z</time>
      </trkpt>
      <trkpt lat="44.55112" lon="1.7493">
        <ele>199.04</ele>
        <time>2022-01-22T14:46:21Z</time>
      </trkpt>
      <trkpt lat="44.55104" lon="1.74917">
        <ele>197.73</ele>
        <time>2022-01-22T14:46:27Z</time>
      </trkpt>
      <trkpt lat="44.55092" lon="1.74902">
        <ele>194.34</ele>
        <time>2022-01-22T14:46:43Z</time>
      </trkpt>
      <trkpt lat="44.55082" lon="1.74894">
        <ele>192.31</ele>
        <time>2022-01-22T14:46:53Z</time>
      </trkpt>
      <trkpt lat="44.55086" lon="1.74886">
        <ele>189.2</ele>
        <time>2022-01-22T14:47:08Z</time>
      </trkpt>
      <trkpt lat="44.55098" lon="1.74867">
        <ele>186.1</ele>
        <time>2022-01-22T14:47:28Z</time>
      </trkpt>
      <trkpt lat="44.55106" lon="1.74859">
        <ele>182.94</ele>
        <time>2022-01-22T14:47:43Z</time>
      </trkpt>
      <trkpt lat="44.5512" lon="1.7485">
        <ele>179.71</ele>
        <time>2022-01-22T14:47:56Z</time>
      </trkpt>
      <trkpt lat="44.55128" lon="1.74844">
        <ele>176.71</ele>
        <time>2022-01-22T14:48:07Z</time>
      </trkpt>
      <trkpt lat="44.55139" lon="1.74838">
        <ele>173.47</ele>
        <time>2022-01-22T14:48:21Z</time>
      </trkpt>
      <trkpt lat="44.55151" lon="1.74829">
        <ele>170.43</ele>
        <time>2022-01-22T14:48:31Z</time>
      </trkpt>
      <trkpt lat="44.55153" lon="1.74825">
        <ele>169.4</ele>
        <time>2022-01-22T14:48:35Z</time>
      </trkpt>
      <trkpt lat="44.5515" lon="1.74817">
        <ele>166.59</ele>
        <time>2022-01-22T14:48:47Z</time>
      </trkpt>
      <trkpt lat="44.55144" lon="1.74814">
        <ele>166.03</ele>
        <time>2022-01-22T14:49:06Z</time>
      </trkpt>
      <trkpt lat="44.55142" lon="1.74812">
        <ele>165.54</ele>
        <time>2022-01-22T14:49:27Z</time>
      </trkpt>
      <trkpt lat="44.55139" lon="1.74801">
        <ele>165.46</ele>
        <time>2022-01-22T14:49:41Z</time>
      </trkpt>
      <trkpt lat="44.5514" lon="1.7481">
        <ele>165.62</ele>
        <time>2022-01-22T14:50:03Z</time>
      </trkpt>
      <trkpt lat="44.55135" lon="1.74813">
        <ele>165.62</ele>
        <time>2022-01-22T14:50:18Z</time>
      </trkpt>
      <trkpt lat="44.55137" lon="1.74808">
        <ele>165.09</ele>
        <time>2022-01-22T14:50:35Z</time>
      </trkpt>
      <trkpt lat="44.5514" lon="1.74807">
        <ele>165.44</ele>
        <time>2022-01-22T14:50:51Z</time>
      </trkpt>
      <trkpt lat="44.55141" lon="1.74817">
        <ele>165.89</ele>
        <time>2022-01-22T14:51:15Z</time>
      </trkpt>
      <trkpt lat="44.55142" lon="1.74816">
        <ele>165.89</ele>
        <time>2022-01-22T14:51:17Z</time>
      </trkpt>
      <trkpt lat="44.55146" lon="1.74811">
        <ele>165.58</ele>
        <time>2022-01-22T14:51:43Z</time>
      </trkpt>
      <trkpt lat="44.55145" lon="1.74811">
        <ele>165.58</ele>
        <time>2022-01-22T14:51:48Z</time>
      </trkpt>
      <trkpt lat="44.55139" lon="1.74808">
        <ele>164.38</ele>
        <time>2022-01-22T14:51:59Z</time>
      </trkpt>
      <trkpt lat="44.55132" lon="1.74798">
        <ele>162.45</ele>
        <time>2022-01-22T14:52:04Z</time>
      </trkpt>
      <trkpt lat="44.55119" lon="1.74789">
        <ele>158.71</ele>
        <time>2022-01-22T14:52:12Z</time>
      </trkpt>
      <trkpt lat="44.55116" lon="1.74787">
        <ele>157.76</ele>
        <time>2022-01-22T14:52:14Z</time>
      </trkpt>
      <trkpt lat="44.55094" lon="1.74784">
        <ele>154.17</ele>
        <time>2022-01-22T14:52:26Z</time>
      </trkpt>
      <trkpt lat="44.55078" lon="1.74782">
        <ele>151.76</ele>
        <time>2022-01-22T14:52:33Z</time>
      </trkpt>
      <trkpt lat="44.55077" lon="1.7478">
        <ele>151.44</ele>
        <time>2022-01-22T14:52:34Z</time>
      </trkpt>
      <trkpt lat="44.55076" lon="1.74778">
        <ele>151.01</ele>
        <time>2022-01-22T14:52:35Z</time>
      </trkpt>
      <trkpt lat="44.55076" lon="1.74777">
        <ele>150.76</ele>
        <time>2022-01-22T14:52:36Z</time>
      </trkpt>
      <trkpt lat="44.55076" lon="1.74776">
        <ele>150.32</ele>
        <time>2022-01-22T14:52:37Z</time>
      </trkpt>
      <trkpt lat="44.55076" lon="1.74775">
        <ele>149.79</ele>
        <time>2022-01-22T14:52:38Z</time>
      </trkpt>
      <trkpt lat="44.55075" lon="1.74773">
        <ele>149.16</ele>
        <time>2022-01-22T14:52:39Z</time>
      </trkpt>
      <trkpt lat="44.55075" lon="1.74772">
        <ele>148.48</ele>
        <time>2022-01-22T14:52:40Z</time>
      </trkpt>
      <trkpt lat="44.55075" lon="1.7477">
        <ele>147.2</ele>
        <time>2022-01-22T14:52:41Z</time>
      </trkpt>
      <trkpt lat="44.55074" lon="1.74769">
        <ele>146.79</ele>
        <time>2022-01-22T14:52:42Z</time>
      </trkpt>
      <trkpt lat="44.55073" lon="1.74769">
        <ele>146.36</ele>
        <time>2022-01-22T14:52:43Z</time>
      </trkpt>
      <trkpt lat="44.55072" lon="1.74768">
        <ele>146.12</ele>
        <time>2022-01-22T14:52:44Z</time>
      </trkpt>
      <trkpt lat="44.5507" lon="1.74768">
        <ele>145.92</ele>
        <time>2022-01-22T14:52:45Z</time>
      </trkpt>
      <trkpt lat="44.55062" lon="1.74769">
        <ele>144.45</ele>
        <time>2022-01-22T14:52:54Z</time>
      </trkpt>
      <trkpt lat="44.55051" lon="1.74767">
        <ele>143.91</ele>
        <time>2022-01-22T14:53:11Z</time>
      </trkpt>
      <trkpt lat="44.55044" lon="1.74779">
        <ele>143.77</ele>
        <time>2022-01-22T14:53:23Z</time>
      </trkpt>
      <trkpt lat="44.55031" lon="1.7478">
        <ele>143.63</ele>
        <time>2022-01-22T14:53:42Z</time>
      </trkpt>
      <trkpt lat="44.55018" lon="1.74784">
        <ele>143.62</ele>
        <time>2022-01-22T14:53:52Z</time>
      </trkpt>
      <trkpt lat="44.55005" lon="1.74782">
        <ele>143.7</ele>
        <time>2022-01-22T14:54:00Z</time>
      </trkpt>
      <trkpt lat="44.5499" lon="1.74775">
        <ele>143.78</ele>
        <time>2022-01-22T14:54:09Z</time>
      </trkpt>
      <trkpt lat="44.54979" lon="1.74768">
        <ele>143.82</ele>
        <time>2022-01-22T14:54:16Z</time>
      </trkpt>
      <trkpt lat="44.54977" lon="1.74771">
        <ele>143.78</ele>
        <time>2022-01-22T14:54:22Z</time>
      </trkpt>
      <trkpt lat="44.5496" lon="1.74765">
        <ele>143.59</ele>
        <time>2022-01-22T14:54:36Z</time>
      </trkpt>
      <trkpt lat="44.54962" lon="1.74776">
        <ele>143.18</ele>
        <time>2022-01-22T14:54:47Z</time>
      </trkpt>
      <trkpt lat="44.54962" lon="1.74764">
        <ele>142.8</ele>
        <time>2022-01-22T14:55:05Z</time>
      </trkpt>
      <trkpt lat="44.54973" lon="1.7475">
        <ele>144.42</ele>
        <time>2022-01-22T14:55:21Z</time>
      </trkpt>
      <trkpt lat="44.54987" lon="1.74737">
        <ele>146.52</ele>
        <time>2022-01-22T14:55:35Z</time>
      </trkpt>
      <trkpt lat="44.54998" lon="1.74724">
        <ele>148.84</ele>
        <time>2022-01-22T14:55:47Z</time>
      </trkpt>
      <trkpt lat="44.54998" lon="1.74721">
        <ele>148.96</ele>
        <time>2022-01-22T14:55:48Z</time>
      </trkpt>
      <trkpt lat="44.54999" lon="1.74719">
        <ele>149.1</ele>
        <time>2022-01-22T14:55:49Z</time>
      </trkpt>
      <trkpt lat="44.54992" lon="1.74715">
        <ele>149.94</ele>
        <time>2022-01-22T14:55:56Z</time>
      </trkpt>
      <trkpt lat="44.5499" lon="1.74714">
        <ele>150.02</ele>
        <time>2022-01-22T14:55:57Z</time>
      </trkpt>
      <trkpt lat="44.54989" lon="1.74715">
        <ele>150.17</ele>
        <time>2022-01-22T14:55:58Z</time>
      </trkpt>
      <trkpt lat="44.54988" lon="1.74715">
        <ele>150.35</ele>
        <time>2022-01-22T14:55:59Z</time>
      </trkpt>
      <trkpt lat="44.54986" lon="1.74716">
        <ele>150.49</ele>
        <time>2022-01-22T14:56:00Z</time>
      </trkpt>
      <trkpt lat="44.5497" lon="1.74712">
        <ele>153.51</ele>
        <time>2022-01-22T14:56:16Z</time>
      </trkpt>
      <trkpt lat="44.54965" lon="1.74713">
        <ele>155.91</ele>
        <time>2022-01-22T14:56:32Z</time>
      </trkpt>
      <trkpt lat="44.54948" lon="1.74708">
        <ele>157.58</ele>
        <time>2022-01-22T14:56:45Z</time>
      </trkpt>
      <trkpt lat="44.54944" lon="1.74707">
        <ele>157.89</ele>
        <time>2022-01-22T14:56:47Z</time>
      </trkpt>
      <trkpt lat="44.54943" lon="1.74707">
        <ele>158.1</ele>
        <time>2022-01-22T14:56:48Z</time>
      </trkpt>
      <trkpt lat="44.54941" lon="1.74708">
        <ele>158.25</ele>
        <time>2022-01-22T14:56:49Z</time>
      </trkpt>
      <trkpt lat="44.54939" lon="1.74707">
        <ele>158.64</ele>
        <time>2022-01-22T14:56:51Z</time>
      </trkpt>
      <trkpt lat="44.54938" lon="1.74704">
        <ele>160.88</ele>
        <time>2022-01-22T14:57:04Z</time>
      </trkpt>
      <trkpt lat="44.54941" lon="1.74701">
        <ele>161.51</ele>
        <time>2022-01-22T14:57:07Z</time>
      </trkpt>
      <trkpt lat="44.5495" lon="1.74692">
        <ele>164</ele>
        <time>2022-01-22T14:57:21Z</time>
      </trkpt>
      <trkpt lat="44.5496" lon="1.74676">
        <ele>165.95</ele>
        <time>2022-01-22T14:57:36Z</time>
      </trkpt>
      <trkpt lat="44.54966" lon="1.74657">
        <ele>168.38</ele>
        <time>2022-01-22T14:57:50Z</time>
      </trkpt>
      <trkpt lat="44.54969" lon="1.7465">
        <ele>169.34</ele>
        <time>2022-01-22T14:57:57Z</time>
      </trkpt>
      <trkpt lat="44.54969" lon="1.74649">
        <ele>169.44</ele>
        <time>2022-01-22T14:57:58Z</time>
      </trkpt>
      <trkpt lat="44.54969" lon="1.74648">
        <ele>169.6</ele>
        <time>2022-01-22T14:57:59Z</time>
      </trkpt>
      <trkpt lat="44.54968" lon="1.74638">
        <ele>170.5</ele>
        <time>2022-01-22T14:58:07Z</time>
      </trkpt>
      <trkpt lat="44.54968" lon="1.74637">
        <ele>170.82</ele>
        <time>2022-01-22T14:58:08Z</time>
      </trkpt>
      <trkpt lat="44.54968" lon="1.74635">
        <ele>170.99</ele>
        <time>2022-01-22T14:58:09Z</time>
      </trkpt>
      <trkpt lat="44.54968" lon="1.74634">
        <ele>171.09</ele>
        <time>2022-01-22T14:58:10Z</time>
      </trkpt>
      <trkpt lat="44.54968" lon="1.74632">
        <ele>171.27</ele>
        <time>2022-01-22T14:58:11Z</time>
      </trkpt>
      <trkpt lat="44.54968" lon="1.74631">
        <ele>171.36</ele>
        <time>2022-01-22T14:58:12Z</time>
      </trkpt>
      <trkpt lat="44.54968" lon="1.7463">
        <ele>171.47</ele>
        <time>2022-01-22T14:58:13Z</time>
      </trkpt>
      <trkpt lat="44.54968" lon="1.74629">
        <ele>171.7</ele>
        <time>2022-01-22T14:58:15Z</time>
      </trkpt>
      <trkpt lat="44.54969" lon="1.74628">
        <ele>171.77</ele>
        <time>2022-01-22T14:58:16Z</time>
      </trkpt>
      <trkpt lat="44.54969" lon="1.74624">
        <ele>172.26</ele>
        <time>2022-01-22T14:58:19Z</time>
      </trkpt>
      <trkpt lat="44.54967" lon="1.74623">
        <ele>172.48</ele>
        <time>2022-01-22T14:58:20Z</time>
      </trkpt>
      <trkpt lat="44.54967" lon="1.74622">
        <ele>172.64</ele>
        <time>2022-01-22T14:58:21Z</time>
      </trkpt>
      <trkpt lat="44.5497" lon="1.74605">
        <ele>174.85</ele>
        <time>2022-01-22T14:58:34Z</time>
      </trkpt>
      <trkpt lat="44.54973" lon="1.74587">
        <ele>177.41</ele>
        <time>2022-01-22T14:58:52Z</time>
      </trkpt>
      <trkpt lat="44.54973" lon="1.74566">
        <ele>180.5</ele>
        <time>2022-01-22T14:59:10Z</time>
      </trkpt>
      <trkpt lat="44.54976" lon="1.74547">
        <ele>183.6</ele>
        <time>2022-01-22T14:59:28Z</time>
      </trkpt>
      <trkpt lat="44.5498" lon="1.74523">
        <ele>186.72</ele>
        <time>2022-01-22T14:59:49Z</time>
      </trkpt>
      <trkpt lat="44.54985" lon="1.74499">
        <ele>189.34</ele>
        <time>2022-01-22T15:00:06Z</time>
      </trkpt>
      <trkpt lat="44.54985" lon="1.74497">
        <ele>189.45</ele>
        <time>2022-01-22T15:00:07Z</time>
      </trkpt>
      <trkpt lat="44.54978" lon="1.74493">
        <ele>191.14</ele>
        <time>2022-01-22T15:00:18Z</time>
      </trkpt>
      <trkpt lat="44.54977" lon="1.74493">
        <ele>191.36</ele>
        <time>2022-01-22T15:00:19Z</time>
      </trkpt>
      <trkpt lat="44.54957" lon="1.7451">
        <ele>193.65</ele>
        <time>2022-01-22T15:00:41Z</time>
      </trkpt>
      <trkpt lat="44.54947" lon="1.74518">
        <ele>194.98</ele>
        <time>2022-01-22T15:00:53Z</time>
      </trkpt>
      <trkpt lat="44.54945" lon="1.74518">
        <ele>195.1</ele>
        <time>2022-01-22T15:00:54Z</time>
      </trkpt>
      <trkpt lat="44.54944" lon="1.74519">
        <ele>195.21</ele>
        <time>2022-01-22T15:00:55Z</time>
      </trkpt>
      <trkpt lat="44.54931" lon="1.74536">
        <ele>197.17</ele>
        <time>2022-01-22T15:01:13Z</time>
      </trkpt>
      <trkpt lat="44.54917" lon="1.74547">
        <ele>200.21</ele>
        <time>2022-01-22T15:01:30Z</time>
      </trkpt>
      <trkpt lat="44.54908" lon="1.74543">
        <ele>203.33</ele>
        <time>2022-01-22T15:01:50Z</time>
      </trkpt>
      <trkpt lat="44.549" lon="1.74527">
        <ele>206.39</ele>
        <time>2022-01-22T15:02:10Z</time>
      </trkpt>
      <trkpt lat="44.54895" lon="1.74523">
        <ele>208.14</ele>
        <time>2022-01-22T15:02:33Z</time>
      </trkpt>
      <trkpt lat="44.54892" lon="1.74516">
        <ele>209.58</ele>
        <time>2022-01-22T15:02:58Z</time>
      </trkpt>
      <trkpt lat="44.54888" lon="1.74514">
        <ele>209.59</ele>
        <time>2022-01-22T15:03:12Z</time>
      </trkpt>
      <trkpt lat="44.54887" lon="1.74513">
        <ele>209.6</ele>
        <time>2022-01-22T15:03:13Z</time>
      </trkpt>
      <trkpt lat="44.54886" lon="1.74512">
        <ele>209.6</ele>
        <time>2022-01-22T15:03:14Z</time>
      </trkpt>
      <trkpt lat="44.5487" lon="1.74495">
        <ele>211.3</ele>
        <time>2022-01-22T15:03:29Z</time>
      </trkpt>
      <trkpt lat="44.54859" lon="1.74482">
        <ele>214.73</ele>
        <time>2022-01-22T15:03:42Z</time>
      </trkpt>
      <trkpt lat="44.54844" lon="1.74467">
        <ele>217.88</ele>
        <time>2022-01-22T15:04:01Z</time>
      </trkpt>
      <trkpt lat="44.54829" lon="1.74455">
        <ele>220.9</ele>
        <time>2022-01-22T15:04:20Z</time>
      </trkpt>
      <trkpt lat="44.54812" lon="1.74444">
        <ele>224.08</ele>
        <time>2022-01-22T15:04:40Z</time>
      </trkpt>
      <trkpt lat="44.54809" lon="1.74424">
        <ele>227.23</ele>
        <time>2022-01-22T15:04:59Z</time>
      </trkpt>
      <trkpt lat="44.54812" lon="1.74411">
        <ele>228.59</ele>
        <time>2022-01-22T15:05:11Z</time>
      </trkpt>
      <trkpt lat="44.54819" lon="1.74378">
        <ele>231.39</ele>
        <time>2022-01-22T15:05:38Z</time>
      </trkpt>
      <trkpt lat="44.54808" lon="1.74366">
        <ele>234.44</ele>
        <time>2022-01-22T15:05:56Z</time>
      </trkpt>
      <trkpt lat="44.54794" lon="1.7436">
        <ele>236.69</ele>
        <time>2022-01-22T15:06:13Z</time>
      </trkpt>
      <trkpt lat="44.54787" lon="1.74359">
        <ele>237.28</ele>
        <time>2022-01-22T15:06:19Z</time>
      </trkpt>
      <trkpt lat="44.54774" lon="1.74356">
        <ele>239.28</ele>
        <time>2022-01-22T15:06:35Z</time>
      </trkpt>
      <trkpt lat="44.54767" lon="1.74359">
        <ele>240.24</ele>
        <time>2022-01-22T15:06:54Z</time>
      </trkpt>
      <trkpt lat="44.54761" lon="1.74349">
        <ele>240.76</ele>
        <time>2022-01-22T15:07:01Z</time>
      </trkpt>
      <trkpt lat="44.54753" lon="1.74331">
        <ele>242.83</ele>
        <time>2022-01-22T15:07:14Z</time>
      </trkpt>
      <trkpt lat="44.54752" lon="1.74327">
        <ele>243.26</ele>
        <time>2022-01-22T15:07:17Z</time>
      </trkpt>
      <trkpt lat="44.54753" lon="1.74317">
        <ele>245.21</ele>
        <time>2022-01-22T15:07:31Z</time>
      </trkpt>
      <trkpt lat="44.54747" lon="1.74305">
        <ele>247.07</ele>
        <time>2022-01-22T15:07:58Z</time>
      </trkpt>
      <trkpt lat="44.54743" lon="1.74291">
        <ele>249.78</ele>
        <time>2022-01-22T15:08:17Z</time>
      </trkpt>
      <trkpt lat="44.54738" lon="1.74278">
        <ele>251.37</ele>
        <time>2022-01-22T15:08:37Z</time>
      </trkpt>
      <trkpt lat="44.54727" lon="1.74253">
        <ele>253.83</ele>
        <time>2022-01-22T15:08:58Z</time>
      </trkpt>
      <trkpt lat="44.54723" lon="1.74239">
        <ele>256.85</ele>
        <time>2022-01-22T15:09:21Z</time>
      </trkpt>
      <trkpt lat="44.54723" lon="1.74238">
        <ele>256.89</ele>
        <time>2022-01-22T15:09:22Z</time>
      </trkpt>
      <trkpt lat="44.54718" lon="1.74221">
        <ele>258.09</ele>
        <time>2022-01-22T15:09:37Z</time>
      </trkpt>
      <trkpt lat="44.5471" lon="1.74202">
        <ele>259.63</ele>
        <time>2022-01-22T15:09:50Z</time>
      </trkpt>
      <trkpt lat="44.54698" lon="1.74179">
        <ele>262.18</ele>
        <time>2022-01-22T15:10:06Z</time>
      </trkpt>
      <trkpt lat="44.54698" lon="1.74168">
        <ele>264.06</ele>
        <time>2022-01-22T15:10:21Z</time>
      </trkpt>
      <trkpt lat="44.54695" lon="1.74165">
        <ele>264.36</ele>
        <time>2022-01-22T15:10:45Z</time>
      </trkpt>
      <trkpt lat="44.54693" lon="1.74167">
        <ele>264.81</ele>
        <time>2022-01-22T15:11:43Z</time>
      </trkpt>
      <trkpt lat="44.54698" lon="1.74168">
        <ele>264.71</ele>
        <time>2022-01-22T15:13:17Z</time>
      </trkpt>
      <trkpt lat="44.5471" lon="1.74161">
        <ele>264.34</ele>
        <time>2022-01-22T15:13:28Z</time>
      </trkpt>
      <trkpt lat="44.5473" lon="1.74141">
        <ele>263.9</ele>
        <time>2022-01-22T15:13:46Z</time>
      </trkpt>
      <trkpt lat="44.5473" lon="1.7414">
        <ele>263.9</ele>
        <time>2022-01-22T15:13:47Z</time>
      </trkpt>
      <trkpt lat="44.54738" lon="1.74117">
        <ele>264.2</ele>
        <time>2022-01-22T15:14:02Z</time>
      </trkpt>
      <trkpt lat="44.54737" lon="1.74095">
        <ele>264.95</ele>
        <time>2022-01-22T15:14:16Z</time>
      </trkpt>
      <trkpt lat="44.54727" lon="1.74078">
        <ele>265.99</ele>
        <time>2022-01-22T15:14:28Z</time>
      </trkpt>
      <trkpt lat="44.54719" lon="1.74057">
        <ele>267.8</ele>
        <time>2022-01-22T15:14:44Z</time>
      </trkpt>
      <trkpt lat="44.54715" lon="1.7405">
        <ele>268.59</ele>
        <time>2022-01-22T15:14:50Z</time>
      </trkpt>
      <trkpt lat="44.54709" lon="1.74043">
        <ele>269.05</ele>
        <time>2022-01-22T15:14:54Z</time>
      </trkpt>
      <trkpt lat="44.54699" lon="1.74028">
        <ele>270.24</ele>
        <time>2022-01-22T15:15:07Z</time>
      </trkpt>
      <trkpt lat="44.5469" lon="1.74013">
        <ele>271.41</ele>
        <time>2022-01-22T15:15:19Z</time>
      </trkpt>
      <trkpt lat="44.54676" lon="1.73999">
        <ele>272.36</ele>
        <time>2022-01-22T15:15:38Z</time>
      </trkpt>
      <trkpt lat="44.54674" lon="1.73993">
        <ele>272.4</ele>
        <time>2022-01-22T15:15:43Z</time>
      </trkpt>
      <trkpt lat="44.54663" lon="1.73982">
        <ele>272.27</ele>
        <time>2022-01-22T15:15:55Z</time>
      </trkpt>
      <trkpt lat="44.54642" lon="1.73967">
        <ele>271.9</ele>
        <time>2022-01-22T15:16:13Z</time>
      </trkpt>
      <trkpt lat="44.54624" lon="1.73954">
        <ele>271.36</ele>
        <time>2022-01-22T15:16:28Z</time>
      </trkpt>
      <trkpt lat="44.54608" lon="1.73933">
        <ele>271.29</ele>
        <time>2022-01-22T15:16:44Z</time>
      </trkpt>
      <trkpt lat="44.54594" lon="1.73913">
        <ele>271.13</ele>
        <time>2022-01-22T15:17:00Z</time>
      </trkpt>
      <trkpt lat="44.54579" lon="1.739">
        <ele>270.84</ele>
        <time>2022-01-22T15:17:15Z</time>
      </trkpt>
      <trkpt lat="44.54564" lon="1.73895">
        <ele>270.27</ele>
        <time>2022-01-22T15:17:30Z</time>
      </trkpt>
      <trkpt lat="44.54547" lon="1.73889">
        <ele>269.49</ele>
        <time>2022-01-22T15:17:43Z</time>
      </trkpt>
      <trkpt lat="44.5453" lon="1.73888">
        <ele>268.86</ele>
        <time>2022-01-22T15:17:58Z</time>
      </trkpt>
      <trkpt lat="44.54502" lon="1.73884">
        <ele>267.11</ele>
        <time>2022-01-22T15:18:20Z</time>
      </trkpt>
      <trkpt lat="44.54483" lon="1.73879">
        <ele>265.24</ele>
        <time>2022-01-22T15:18:37Z</time>
      </trkpt>
      <trkpt lat="44.54461" lon="1.73855">
        <ele>264.3</ele>
        <time>2022-01-22T15:18:56Z</time>
      </trkpt>
      <trkpt lat="44.54451" lon="1.73833">
        <ele>264.24</ele>
        <time>2022-01-22T15:19:11Z</time>
      </trkpt>
      <trkpt lat="44.54446" lon="1.73829">
        <ele>264.03</ele>
        <time>2022-01-22T15:19:16Z</time>
      </trkpt>
      <trkpt lat="44.54431" lon="1.73821">
        <ele>263.04</ele>
        <time>2022-01-22T15:19:29Z</time>
      </trkpt>
      <trkpt lat="44.54416" lon="1.73822">
        <ele>262.15</ele>
        <time>2022-01-22T15:19:41Z</time>
      </trkpt>
      <trkpt lat="44.54396" lon="1.73827">
        <ele>260.83</ele>
        <time>2022-01-22T15:19:58Z</time>
      </trkpt>
      <trkpt lat="44.54379" lon="1.73811">
        <ele>259.68</ele>
        <time>2022-01-22T15:20:13Z</time>
      </trkpt>
      <trkpt lat="44.54378" lon="1.73809">
        <ele>259.6</ele>
        <time>2022-01-22T15:20:14Z</time>
      </trkpt>
      <trkpt lat="44.54377" lon="1.73808">
        <ele>259.54</ele>
        <time>2022-01-22T15:20:15Z</time>
      </trkpt>
      <trkpt lat="44.5437" lon="1.73767">
        <ele>258.46</ele>
        <time>2022-01-22T15:20:33Z</time>
      </trkpt>
      <trkpt lat="44.54376" lon="1.7374">
        <ele>256.74</ele>
        <time>2022-01-22T15:20:48Z</time>
      </trkpt>
      <trkpt lat="44.54377" lon="1.73731">
        <ele>256.32</ele>
        <time>2022-01-22T15:20:53Z</time>
      </trkpt>
      <trkpt lat="44.5438" lon="1.73703">
        <ele>253.8</ele>
        <time>2022-01-22T15:21:10Z</time>
      </trkpt>
      <trkpt lat="44.54379" lon="1.73701">
        <ele>253.69</ele>
        <time>2022-01-22T15:21:11Z</time>
      </trkpt>
      <trkpt lat="44.54379" lon="1.73699">
        <ele>253.63</ele>
        <time>2022-01-22T15:21:12Z</time>
      </trkpt>
      <trkpt lat="44.5438" lon="1.73698">
        <ele>253.47</ele>
        <time>2022-01-22T15:21:13Z</time>
      </trkpt>
      <trkpt lat="44.5438" lon="1.73696">
        <ele>253.36</ele>
        <time>2022-01-22T15:21:14Z</time>
      </trkpt>
      <trkpt lat="44.5438" lon="1.73694">
        <ele>253.29</ele>
        <time>2022-01-22T15:21:15Z</time>
      </trkpt>
      <trkpt lat="44.54381" lon="1.73692">
        <ele>253.11</ele>
        <time>2022-01-22T15:21:16Z</time>
      </trkpt>
      <trkpt lat="44.54381" lon="1.7369">
        <ele>253</ele>
        <time>2022-01-22T15:21:17Z</time>
      </trkpt>
      <trkpt lat="44.54381" lon="1.73688">
        <ele>252.91</ele>
        <time>2022-01-22T15:21:18Z</time>
      </trkpt>
      <trkpt lat="44.54382" lon="1.73686">
        <ele>252.76</ele>
        <time>2022-01-22T15:21:19Z</time>
      </trkpt>
      <trkpt lat="44.54382" lon="1.73685">
        <ele>252.61</ele>
        <time>2022-01-22T15:21:20Z</time>
      </trkpt>
      <trkpt lat="44.54384" lon="1.73656">
        <ele>249.51</ele>
        <time>2022-01-22T15:21:36Z</time>
      </trkpt>
      <trkpt lat="44.54384" lon="1.73647">
        <ele>248.25</ele>
        <time>2022-01-22T15:21:42Z</time>
      </trkpt>
      <trkpt lat="44.54384" lon="1.73639">
        <ele>247.44</ele>
        <time>2022-01-22T15:21:47Z</time>
      </trkpt>
      <trkpt lat="44.54385" lon="1.73638">
        <ele>247.16</ele>
        <time>2022-01-22T15:21:48Z</time>
      </trkpt>
      <trkpt lat="44.54385" lon="1.73636">
        <ele>247</ele>
        <time>2022-01-22T15:21:49Z</time>
      </trkpt>
      <trkpt lat="44.54386" lon="1.73615">
        <ele>244.37</ele>
        <time>2022-01-22T15:22:02Z</time>
      </trkpt>
      <trkpt lat="44.54385" lon="1.73616">
        <ele>243.77</ele>
        <time>2022-01-22T15:22:04Z</time>
      </trkpt>
      <trkpt lat="44.54384" lon="1.73614">
        <ele>242.58</ele>
        <time>2022-01-22T15:22:34Z</time>
      </trkpt>
      <trkpt lat="44.54379" lon="1.73612">
        <ele>242.74</ele>
        <time>2022-01-22T15:23:06Z</time>
      </trkpt>
      <trkpt lat="44.5438" lon="1.73615">
        <ele>243.02</ele>
        <time>2022-01-22T15:23:47Z</time>
      </trkpt>
      <trkpt lat="44.54381" lon="1.73617">
        <ele>242.83</ele>
        <time>2022-01-22T15:24:08Z</time>
      </trkpt>
      <trkpt lat="44.54388" lon="1.73611">
        <ele>242.83</ele>
        <time>2022-01-22T15:24:26Z</time>
      </trkpt>
      <trkpt lat="44.54403" lon="1.73601">
        <ele>242.04</ele>
        <time>2022-01-22T15:24:43Z</time>
      </trkpt>
      <trkpt lat="44.54405" lon="1.73601">
        <ele>241.99</ele>
        <time>2022-01-22T15:24:44Z</time>
      </trkpt>
      <trkpt lat="44.5442" lon="1.7359">
        <ele>241.08</ele>
        <time>2022-01-22T15:25:00Z</time>
      </trkpt>
      <trkpt lat="44.54436" lon="1.73575">
        <ele>239.64</ele>
        <time>2022-01-22T15:25:17Z</time>
      </trkpt>
      <trkpt lat="44.54463" lon="1.73552">
        <ele>238.38</ele>
        <time>2022-01-22T15:25:42Z</time>
      </trkpt>
      <trkpt lat="44.54482" lon="1.73532">
        <ele>237.44</ele>
        <time>2022-01-22T15:25:58Z</time>
      </trkpt>
      <trkpt lat="44.54495" lon="1.73522">
        <ele>236.85</ele>
        <time>2022-01-22T15:26:09Z</time>
      </trkpt>
      <trkpt lat="44.54496" lon="1.73521">
        <ele>236.71</ele>
        <time>2022-01-22T15:26:10Z</time>
      </trkpt>
      <trkpt lat="44.54497" lon="1.7352">
        <ele>236.6</ele>
        <time>2022-01-22T15:26:11Z</time>
      </trkpt>
      <trkpt lat="44.54498" lon="1.73519">
        <ele>236.5</ele>
        <time>2022-01-22T15:26:12Z</time>
      </trkpt>
      <trkpt lat="44.545" lon="1.73519">
        <ele>236.44</ele>
        <time>2022-01-22T15:26:13Z</time>
      </trkpt>
      <trkpt lat="44.54501" lon="1.73518">
        <ele>236.38</ele>
        <time>2022-01-22T15:26:14Z</time>
      </trkpt>
      <trkpt lat="44.54502" lon="1.73517">
        <ele>236.3</ele>
        <time>2022-01-22T15:26:15Z</time>
      </trkpt>
      <trkpt lat="44.54503" lon="1.73516">
        <ele>236.2</ele>
        <time>2022-01-22T15:26:16Z</time>
      </trkpt>
      <trkpt lat="44.54523" lon="1.73501">
        <ele>234.75</ele>
        <time>2022-01-22T15:26:34Z</time>
      </trkpt>
      <trkpt lat="44.54543" lon="1.73478">
        <ele>232.43</ele>
        <time>2022-01-22T15:26:53Z</time>
      </trkpt>
      <trkpt lat="44.54558" lon="1.73463">
        <ele>231.64</ele>
        <time>2022-01-22T15:27:08Z</time>
      </trkpt>
      <trkpt lat="44.54568" lon="1.73463">
        <ele>231.37</ele>
        <time>2022-01-22T15:27:18Z</time>
      </trkpt>
      <trkpt lat="44.5457" lon="1.73463">
        <ele>231.37</ele>
        <time>2022-01-22T15:27:19Z</time>
      </trkpt>
      <trkpt lat="44.54587" lon="1.73459">
        <ele>230.95</ele>
        <time>2022-01-22T15:27:34Z</time>
      </trkpt>
      <trkpt lat="44.54602" lon="1.73451">
        <ele>230.2</ele>
        <time>2022-01-22T15:27:48Z</time>
      </trkpt>
      <trkpt lat="44.54629" lon="1.73443">
        <ele>228.85</ele>
        <time>2022-01-22T15:28:09Z</time>
      </trkpt>
      <trkpt lat="44.54655" lon="1.73438">
        <ele>228.01</ele>
        <time>2022-01-22T15:28:27Z</time>
      </trkpt>
      <trkpt lat="44.54678" lon="1.73432">
        <ele>226.9</ele>
        <time>2022-01-22T15:28:46Z</time>
      </trkpt>
      <trkpt lat="44.54698" lon="1.73426">
        <ele>226.39</ele>
        <time>2022-01-22T15:29:00Z</time>
      </trkpt>
      <trkpt lat="44.54712" lon="1.73418">
        <ele>225.58</ele>
        <time>2022-01-22T15:29:10Z</time>
      </trkpt>
      <trkpt lat="44.54725" lon="1.73408">
        <ele>224.48</ele>
        <time>2022-01-22T15:29:22Z</time>
      </trkpt>
      <trkpt lat="44.54737" lon="1.73397">
        <ele>224.32</ele>
        <time>2022-01-22T15:29:34Z</time>
      </trkpt>
      <trkpt lat="44.54747" lon="1.73374">
        <ele>224.69</ele>
        <time>2022-01-22T15:29:46Z</time>
      </trkpt>
      <trkpt lat="44.54753" lon="1.73346">
        <ele>225.85</ele>
        <time>2022-01-22T15:30:00Z</time>
      </trkpt>
      <trkpt lat="44.54755" lon="1.73325">
        <ele>227.18</ele>
        <time>2022-01-22T15:30:14Z</time>
      </trkpt>
      <trkpt lat="44.5476" lon="1.73305">
        <ele>227.88</ele>
        <time>2022-01-22T15:30:27Z</time>
      </trkpt>
      <trkpt lat="44.54762" lon="1.73295">
        <ele>228.27</ele>
        <time>2022-01-22T15:30:33Z</time>
      </trkpt>
      <trkpt lat="44.54762" lon="1.73293">
        <ele>228.33</ele>
        <time>2022-01-22T15:30:34Z</time>
      </trkpt>
      <trkpt lat="44.54762" lon="1.73291">
        <ele>228.41</ele>
        <time>2022-01-22T15:30:35Z</time>
      </trkpt>
      <trkpt lat="44.54762" lon="1.73275">
        <ele>229.17</ele>
        <time>2022-01-22T15:30:48Z</time>
      </trkpt>
      <trkpt lat="44.54766" lon="1.73253">
        <ele>229.48</ele>
        <time>2022-01-22T15:31:03Z</time>
      </trkpt>
      <trkpt lat="44.54768" lon="1.73233">
        <ele>229.95</ele>
        <time>2022-01-22T15:31:17Z</time>
      </trkpt>
      <trkpt lat="44.5477" lon="1.73184">
        <ele>231</ele>
        <time>2022-01-22T15:31:45Z</time>
      </trkpt>
      <trkpt lat="44.54773" lon="1.73144">
        <ele>230.99</ele>
        <time>2022-01-22T15:32:08Z</time>
      </trkpt>
      <trkpt lat="44.54782" lon="1.73095">
        <ele>230.73</ele>
        <time>2022-01-22T15:32:34Z</time>
      </trkpt>
      <trkpt lat="44.54783" lon="1.73094">
        <ele>230.74</ele>
        <time>2022-01-22T15:32:35Z</time>
      </trkpt>
      <trkpt lat="44.54796" lon="1.73062">
        <ele>231.09</ele>
        <time>2022-01-22T15:32:53Z</time>
      </trkpt>
      <trkpt lat="44.54814" lon="1.7304">
        <ele>231.91</ele>
        <time>2022-01-22T15:33:10Z</time>
      </trkpt>
      <trkpt lat="44.54837" lon="1.73018">
        <ele>232.56</ele>
        <time>2022-01-22T15:33:26Z</time>
      </trkpt>
      <trkpt lat="44.54844" lon="1.73007">
        <ele>232.73</ele>
        <time>2022-01-22T15:33:34Z</time>
      </trkpt>
      <trkpt lat="44.54846" lon="1.73006">
        <ele>232.74</ele>
        <time>2022-01-22T15:33:35Z</time>
      </trkpt>
      <trkpt lat="44.54847" lon="1.73005">
        <ele>232.74</ele>
        <time>2022-01-22T15:33:36Z</time>
      </trkpt>
      <trkpt lat="44.54848" lon="1.73004">
        <ele>232.75</ele>
        <time>2022-01-22T15:33:37Z</time>
      </trkpt>
      <trkpt lat="44.54848" lon="1.73002">
        <ele>232.76</ele>
        <time>2022-01-22T15:33:38Z</time>
      </trkpt>
      <trkpt lat="44.54849" lon="1.73001">
        <ele>232.76</ele>
        <time>2022-01-22T15:33:39Z</time>
      </trkpt>
      <trkpt lat="44.5485" lon="1.72999">
        <ele>232.76</ele>
        <time>2022-01-22T15:33:40Z</time>
      </trkpt>
      <trkpt lat="44.54851" lon="1.72998">
        <ele>232.75</ele>
        <time>2022-01-22T15:33:41Z</time>
      </trkpt>
      <trkpt lat="44.54852" lon="1.72996">
        <ele>232.74</ele>
        <time>2022-01-22T15:33:42Z</time>
      </trkpt>
      <trkpt lat="44.54853" lon="1.72995">
        <ele>232.74</ele>
        <time>2022-01-22T15:33:43Z</time>
      </trkpt>
      <trkpt lat="44.54868" lon="1.72977">
        <ele>233.09</ele>
        <time>2022-01-22T15:33:59Z</time>
      </trkpt>
      <trkpt lat="44.54884" lon="1.72959">
        <ele>233.93</ele>
        <time>2022-01-22T15:34:15Z</time>
      </trkpt>
      <trkpt lat="44.54898" lon="1.72941">
        <ele>234.49</ele>
        <time>2022-01-22T15:34:30Z</time>
      </trkpt>
      <trkpt lat="44.5491" lon="1.72923">
        <ele>235.27</ele>
        <time>2022-01-22T15:34:47Z</time>
      </trkpt>
      <trkpt lat="44.54912" lon="1.72924">
        <ele>236.3</ele>
        <time>2022-01-22T15:35:40Z</time>
      </trkpt>
      <trkpt lat="44.54916" lon="1.72923">
        <ele>236.46</ele>
        <time>2022-01-22T15:36:27Z</time>
      </trkpt>
      <trkpt lat="44.54918" lon="1.72915">
        <ele>236.54</ele>
        <time>2022-01-22T15:36:32Z</time>
      </trkpt>
      <trkpt lat="44.54926" lon="1.72905">
        <ele>236.55</ele>
        <time>2022-01-22T15:36:38Z</time>
      </trkpt>
      <trkpt lat="44.54933" lon="1.72902">
        <ele>236.56</ele>
        <time>2022-01-22T15:36:43Z</time>
      </trkpt>
      <trkpt lat="44.54935" lon="1.72901">
        <ele>236.56</ele>
        <time>2022-01-22T15:36:44Z</time>
      </trkpt>
      <trkpt lat="44.54935" lon="1.729">
        <ele>236.56</ele>
        <time>2022-01-22T15:36:45Z</time>
      </trkpt>
      <trkpt lat="44.54947" lon="1.72888">
        <ele>237.2</ele>
        <time>2022-01-22T15:36:58Z</time>
      </trkpt>
      <trkpt lat="44.54961" lon="1.72876">
        <ele>237.98</ele>
        <time>2022-01-22T15:37:10Z</time>
      </trkpt>
      <trkpt lat="44.54967" lon="1.72867">
        <ele>238.26</ele>
        <time>2022-01-22T15:37:16Z</time>
      </trkpt>
      <trkpt lat="44.54968" lon="1.72866">
        <ele>238.31</ele>
        <time>2022-01-22T15:37:17Z</time>
      </trkpt>
      <trkpt lat="44.54969" lon="1.72864">
        <ele>238.34</ele>
        <time>2022-01-22T15:37:18Z</time>
      </trkpt>
      <trkpt lat="44.5497" lon="1.72852">
        <ele>238.74</ele>
        <time>2022-01-22T15:37:24Z</time>
      </trkpt>
      <trkpt lat="44.54971" lon="1.7285">
        <ele>238.79</ele>
        <time>2022-01-22T15:37:25Z</time>
      </trkpt>
      <trkpt lat="44.54972" lon="1.72848">
        <ele>238.81</ele>
        <time>2022-01-22T15:37:26Z</time>
      </trkpt>
      <trkpt lat="44.54973" lon="1.72846">
        <ele>238.93</ele>
        <time>2022-01-22T15:37:27Z</time>
      </trkpt>
      <trkpt lat="44.54973" lon="1.72845">
        <ele>239.01</ele>
        <time>2022-01-22T15:37:28Z</time>
      </trkpt>
      <trkpt lat="44.54975" lon="1.72835">
        <ele>239.38</ele>
        <time>2022-01-22T15:37:37Z</time>
      </trkpt>
      <trkpt lat="44.54974" lon="1.7283">
        <ele>239.38</ele>
        <time>2022-01-22T15:37:39Z</time>
      </trkpt>
      <trkpt lat="44.54975" lon="1.72811">
        <ele>239.22</ele>
        <time>2022-01-22T15:37:50Z</time>
      </trkpt>
      <trkpt lat="44.54986" lon="1.7279">
        <ele>239.22</ele>
        <time>2022-01-22T15:38:03Z</time>
      </trkpt>
      <trkpt lat="44.54987" lon="1.72789">
        <ele>239.24</ele>
        <time>2022-01-22T15:38:04Z</time>
      </trkpt>
      <trkpt lat="44.54998" lon="1.72795">
        <ele>240.24</ele>
        <time>2022-01-22T15:38:17Z</time>
      </trkpt>
      <trkpt lat="44.55003" lon="1.72798">
        <ele>240.93</ele>
        <time>2022-01-22T15:38:31Z</time>
      </trkpt>
      <trkpt lat="44.55006" lon="1.72796">
        <ele>240.99</ele>
        <time>2022-01-22T15:38:33Z</time>
      </trkpt>
      <trkpt lat="44.55008" lon="1.72797">
        <ele>241.03</ele>
        <time>2022-01-22T15:38:36Z</time>
      </trkpt>
      <trkpt lat="44.55009" lon="1.72797">
        <ele>241.05</ele>
        <time>2022-01-22T15:38:37Z</time>
      </trkpt>
      <trkpt lat="44.55009" lon="1.72798">
        <ele>241.06</ele>
        <time>2022-01-22T15:38:38Z</time>
      </trkpt>
      <trkpt lat="44.5501" lon="1.72797">
        <ele>241.07</ele>
        <time>2022-01-22T15:38:39Z</time>
      </trkpt>
      <trkpt lat="44.55011" lon="1.72797">
        <ele>241.08</ele>
        <time>2022-01-22T15:38:40Z</time>
      </trkpt>
      <trkpt lat="44.55012" lon="1.72796">
        <ele>241.19</ele>
        <time>2022-01-22T15:38:41Z</time>
      </trkpt>
      <trkpt lat="44.55026" lon="1.72797">
        <ele>242.77</ele>
        <time>2022-01-22T15:38:54Z</time>
      </trkpt>
      <trkpt lat="44.55043" lon="1.72799">
        <ele>245.06</ele>
        <time>2022-01-22T15:39:09Z</time>
      </trkpt>
      <trkpt lat="44.55063" lon="1.72801">
        <ele>247.9</ele>
        <time>2022-01-22T15:39:30Z</time>
      </trkpt>
      <trkpt lat="44.55062" lon="1.72801">
        <ele>248.82</ele>
        <time>2022-01-22T15:39:52Z</time>
      </trkpt>
      <trkpt lat="44.55061" lon="1.72802">
        <ele>248.7</ele>
        <time>2022-01-22T15:40:17Z</time>
      </trkpt>
      <trkpt lat="44.55065" lon="1.728">
        <ele>248.64</ele>
        <time>2022-01-22T15:41:01Z</time>
      </trkpt>
      <trkpt lat="44.55067" lon="1.72808">
        <ele>249.17</ele>
        <time>2022-01-22T15:41:28Z</time>
      </trkpt>
      <trkpt lat="44.55066" lon="1.72831">
        <ele>249.95</ele>
        <time>2022-01-22T15:41:42Z</time>
      </trkpt>
      <trkpt lat="44.55066" lon="1.72844">
        <ele>251.77</ele>
        <time>2022-01-22T15:41:56Z</time>
      </trkpt>
      <trkpt lat="44.5507" lon="1.72861">
        <ele>253.06</ele>
        <time>2022-01-22T15:42:13Z</time>
      </trkpt>
      <trkpt lat="44.55071" lon="1.72863">
        <ele>253.32</ele>
        <time>2022-01-22T15:42:15Z</time>
      </trkpt>
      <trkpt lat="44.55075" lon="1.72871">
        <ele>253.98</ele>
        <time>2022-01-22T15:42:22Z</time>
      </trkpt>
      <trkpt lat="44.55077" lon="1.72881">
        <ele>255.66</ele>
        <time>2022-01-22T15:42:30Z</time>
      </trkpt>
      <trkpt lat="44.55079" lon="1.7289">
        <ele>257.3</ele>
        <time>2022-01-22T15:42:39Z</time>
      </trkpt>
      <trkpt lat="44.55084" lon="1.72906">
        <ele>259.89</ele>
        <time>2022-01-22T15:42:53Z</time>
      </trkpt>
      <trkpt lat="44.55089" lon="1.72919">
        <ele>262</ele>
        <time>2022-01-22T15:43:06Z</time>
      </trkpt>
      <trkpt lat="44.55095" lon="1.72939">
        <ele>265.01</ele>
        <time>2022-01-22T15:43:25Z</time>
      </trkpt>
      <trkpt lat="44.55103" lon="1.72956">
        <ele>268.09</ele>
        <time>2022-01-22T15:43:41Z</time>
      </trkpt>
      <trkpt lat="44.55117" lon="1.72963">
        <ele>270.7</ele>
        <time>2022-01-22T15:43:59Z</time>
      </trkpt>
      <trkpt lat="44.55142" lon="1.7295">
        <ele>273.98</ele>
        <time>2022-01-22T15:44:21Z</time>
      </trkpt>
      <trkpt lat="44.55147" lon="1.72946">
        <ele>274.48</ele>
        <time>2022-01-22T15:44:26Z</time>
      </trkpt>
      <trkpt lat="44.55167" lon="1.72935">
        <ele>276.58</ele>
        <time>2022-01-22T15:44:43Z</time>
      </trkpt>
      <trkpt lat="44.55171" lon="1.72934">
        <ele>276.93</ele>
        <time>2022-01-22T15:44:47Z</time>
      </trkpt>
      <trkpt lat="44.55187" lon="1.72922">
        <ele>278.12</ele>
        <time>2022-01-22T15:45:02Z</time>
      </trkpt>
      <trkpt lat="44.552" lon="1.72915">
        <ele>278.81</ele>
        <time>2022-01-22T15:45:16Z</time>
      </trkpt>
      <trkpt lat="44.55226" lon="1.72906">
        <ele>279.91</ele>
        <time>2022-01-22T15:45:40Z</time>
      </trkpt>
      <trkpt lat="44.55229" lon="1.72906">
        <ele>279.98</ele>
        <time>2022-01-22T15:45:42Z</time>
      </trkpt>
      <trkpt lat="44.55252" lon="1.72919">
        <ele>282.09</ele>
        <time>2022-01-22T15:46:05Z</time>
      </trkpt>
      <trkpt lat="44.5527" lon="1.72931">
        <ele>284.83</ele>
        <time>2022-01-22T15:46:23Z</time>
      </trkpt>
      <trkpt lat="44.55276" lon="1.72933">
        <ele>285.49</ele>
        <time>2022-01-22T15:46:28Z</time>
      </trkpt>
      <trkpt lat="44.55294" lon="1.72942">
        <ele>287.7</ele>
        <time>2022-01-22T15:46:46Z</time>
      </trkpt>
      <trkpt lat="44.55315" lon="1.7295">
        <ele>289.52</ele>
        <time>2022-01-22T15:47:05Z</time>
      </trkpt>
      <trkpt lat="44.55334" lon="1.72959">
        <ele>291.93</ele>
        <time>2022-01-22T15:47:23Z</time>
      </trkpt>
      <trkpt lat="44.55349" lon="1.72972">
        <ele>294.7</ele>
        <time>2022-01-22T15:47:39Z</time>
      </trkpt>
      <trkpt lat="44.55365" lon="1.72988">
        <ele>297.87</ele>
        <time>2022-01-22T15:47:58Z</time>
      </trkpt>
      <trkpt lat="44.55374" lon="1.72999">
        <ele>299.78</ele>
        <time>2022-01-22T15:48:10Z</time>
      </trkpt>
      <trkpt lat="44.55381" lon="1.7301">
        <ele>301.9</ele>
        <time>2022-01-22T15:48:23Z</time>
      </trkpt>
      <trkpt lat="44.5539" lon="1.73021">
        <ele>304.34</ele>
        <time>2022-01-22T15:48:40Z</time>
      </trkpt>
      <trkpt lat="44.55393" lon="1.7302">
        <ele>305.37</ele>
        <time>2022-01-22T15:48:49Z</time>
      </trkpt>
      <trkpt lat="44.55412" lon="1.72997">
        <ele>305.08</ele>
        <time>2022-01-22T15:49:08Z</time>
      </trkpt>
      <trkpt lat="44.55417" lon="1.72993">
        <ele>303.93</ele>
        <time>2022-01-22T15:49:25Z</time>
      </trkpt>
      <trkpt lat="44.55418" lon="1.72993">
        <ele>303.8</ele>
        <time>2022-01-22T15:49:43Z</time>
      </trkpt>
      <trkpt lat="44.55423" lon="1.72998">
        <ele>303.82</ele>
        <time>2022-01-22T15:49:48Z</time>
      </trkpt>
      <trkpt lat="44.55426" lon="1.73002">
        <ele>303.89</ele>
        <time>2022-01-22T15:49:52Z</time>
      </trkpt>
      <trkpt lat="44.55439" lon="1.73025">
        <ele>306.78</ele>
        <time>2022-01-22T15:50:11Z</time>
      </trkpt>
      <trkpt lat="44.55454" lon="1.73047">
        <ele>309.06</ele>
        <time>2022-01-22T15:50:30Z</time>
      </trkpt>
      <trkpt lat="44.55468" lon="1.7307">
        <ele>312.08</ele>
        <time>2022-01-22T15:50:50Z</time>
      </trkpt>
      <trkpt lat="44.55473" lon="1.73075">
        <ele>312.98</ele>
        <time>2022-01-22T15:50:56Z</time>
      </trkpt>
      <trkpt lat="44.55478" lon="1.73079">
        <ele>313.53</ele>
        <time>2022-01-22T15:51:01Z</time>
      </trkpt>
      <trkpt lat="44.55479" lon="1.73081">
        <ele>313.81</ele>
        <time>2022-01-22T15:51:03Z</time>
      </trkpt>
      <trkpt lat="44.55483" lon="1.73085">
        <ele>314.48</ele>
        <time>2022-01-22T15:51:07Z</time>
      </trkpt>
      <trkpt lat="44.55494" lon="1.73098">
        <ele>316.05</ele>
        <time>2022-01-22T15:51:21Z</time>
      </trkpt>
      <trkpt lat="44.55494" lon="1.731">
        <ele>316.14</ele>
        <time>2022-01-22T15:51:22Z</time>
      </trkpt>
      <trkpt lat="44.55504" lon="1.73111">
        <ele>317.82</ele>
        <time>2022-01-22T15:51:35Z</time>
      </trkpt>
      <trkpt lat="44.55506" lon="1.73127">
        <ele>318.54</ele>
        <time>2022-01-22T15:51:44Z</time>
      </trkpt>
      <trkpt lat="44.5552" lon="1.7315">
        <ele>320.88</ele>
        <time>2022-01-22T15:52:02Z</time>
      </trkpt>
      <trkpt lat="44.55522" lon="1.73152">
        <ele>321.15</ele>
        <time>2022-01-22T15:52:04Z</time>
      </trkpt>
      <trkpt lat="44.55522" lon="1.73153">
        <ele>321.32</ele>
        <time>2022-01-22T15:52:05Z</time>
      </trkpt>
      <trkpt lat="44.55523" lon="1.73154">
        <ele>321.32</ele>
        <time>2022-01-22T15:52:06Z</time>
      </trkpt>
      <trkpt lat="44.5553" lon="1.73159">
        <ele>321.84</ele>
        <time>2022-01-22T15:52:12Z</time>
      </trkpt>
      <trkpt lat="44.5555" lon="1.73179">
        <ele>322.72</ele>
        <time>2022-01-22T15:52:30Z</time>
      </trkpt>
      <trkpt lat="44.55572" lon="1.73201">
        <ele>323.49</ele>
        <time>2022-01-22T15:52:50Z</time>
      </trkpt>
      <trkpt lat="44.55573" lon="1.73202">
        <ele>323.54</ele>
        <time>2022-01-22T15:52:51Z</time>
      </trkpt>
      <trkpt lat="44.5559" lon="1.73223">
        <ele>324.6</ele>
        <time>2022-01-22T15:53:07Z</time>
      </trkpt>
      <trkpt lat="44.55606" lon="1.73234">
        <ele>325.34</ele>
        <time>2022-01-22T15:53:21Z</time>
      </trkpt>
      <trkpt lat="44.55623" lon="1.73242">
        <ele>326.46</ele>
        <time>2022-01-22T15:53:35Z</time>
      </trkpt>
      <trkpt lat="44.55649" lon="1.73252">
        <ele>327.74</ele>
        <time>2022-01-22T15:53:52Z</time>
      </trkpt>
      <trkpt lat="44.55668" lon="1.73266">
        <ele>329.1</ele>
        <time>2022-01-22T15:54:11Z</time>
      </trkpt>
      <trkpt lat="44.55689" lon="1.73272">
        <ele>330.46</ele>
        <time>2022-01-22T15:54:28Z</time>
      </trkpt>
      <trkpt lat="44.55709" lon="1.73284">
        <ele>331.54</ele>
        <time>2022-01-22T15:54:46Z</time>
      </trkpt>
      <trkpt lat="44.55723" lon="1.73298">
        <ele>332.48</ele>
        <time>2022-01-22T15:54:59Z</time>
      </trkpt>
      <trkpt lat="44.55742" lon="1.7331">
        <ele>333.87</ele>
        <time>2022-01-22T15:55:16Z</time>
      </trkpt>
      <trkpt lat="44.55751" lon="1.73317">
        <ele>334.3</ele>
        <time>2022-01-22T15:55:24Z</time>
      </trkpt>
      <trkpt lat="44.55766" lon="1.73321">
        <ele>335.28</ele>
        <time>2022-01-22T15:55:39Z</time>
      </trkpt>
      <trkpt lat="44.55784" lon="1.7333">
        <ele>336.43</ele>
        <time>2022-01-22T15:55:56Z</time>
      </trkpt>
      <trkpt lat="44.55799" lon="1.7334">
        <ele>337.19</ele>
        <time>2022-01-22T15:56:11Z</time>
      </trkpt>
      <trkpt lat="44.5581" lon="1.73353">
        <ele>337.87</ele>
        <time>2022-01-22T15:56:24Z</time>
      </trkpt>
      <trkpt lat="44.55819" lon="1.73365">
        <ele>338.42</ele>
        <time>2022-01-22T15:56:33Z</time>
      </trkpt>
      <trkpt lat="44.5584" lon="1.73386">
        <ele>339.01</ele>
        <time>2022-01-22T15:56:52Z</time>
      </trkpt>
      <trkpt lat="44.55859" lon="1.73401">
        <ele>339.67</ele>
        <time>2022-01-22T15:57:08Z</time>
      </trkpt>
      <trkpt lat="44.55875" lon="1.73423">
        <ele>340.45</ele>
        <time>2022-01-22T15:57:24Z</time>
      </trkpt>
      <trkpt lat="44.55891" lon="1.73439">
        <ele>340.07</ele>
        <time>2022-01-22T15:57:40Z</time>
      </trkpt>
      <trkpt lat="44.55904" lon="1.73463">
        <ele>339.29</ele>
        <time>2022-01-22T15:57:56Z</time>
      </trkpt>
      <trkpt lat="44.5594" lon="1.73451">
        <ele>337.88</ele>
        <time>2022-01-22T15:58:09Z</time>
      </trkpt>
      <trkpt lat="44.55954" lon="1.73454">
        <ele>337.4</ele>
        <time>2022-01-22T15:58:16Z</time>
      </trkpt>
      <trkpt lat="44.55973" lon="1.73463">
        <ele>336.69</ele>
        <time>2022-01-22T15:58:29Z</time>
      </trkpt>
      <trkpt lat="44.55991" lon="1.73474">
        <ele>335.52</ele>
        <time>2022-01-22T15:58:44Z</time>
      </trkpt>
      <trkpt lat="44.56009" lon="1.73478">
        <ele>334.67</ele>
        <time>2022-01-22T15:58:54Z</time>
      </trkpt>
      <trkpt lat="44.56025" lon="1.73477">
        <ele>333.91</ele>
        <time>2022-01-22T15:59:03Z</time>
      </trkpt>
      <trkpt lat="44.56044" lon="1.7347">
        <ele>332.94</ele>
        <time>2022-01-22T15:59:16Z</time>
      </trkpt>
      <trkpt lat="44.56059" lon="1.73457">
        <ele>332.43</ele>
        <time>2022-01-22T15:59:28Z</time>
      </trkpt>
      <trkpt lat="44.56055" lon="1.73454">
        <ele>332.37</ele>
        <time>2022-01-22T15:59:35Z</time>
      </trkpt>
      <trkpt lat="44.56034" lon="1.73483">
        <ele>332.69</ele>
        <time>2022-01-22T15:59:49Z</time>
      </trkpt>
      <trkpt lat="44.56055" lon="1.73495">
        <ele>332.83</ele>
        <time>2022-01-22T16:00:07Z</time>
      </trkpt>
      <trkpt lat="44.56062" lon="1.73508">
        <ele>333.19</ele>
        <time>2022-01-22T16:00:15Z</time>
      </trkpt>
      <trkpt lat="44.56078" lon="1.73522">
        <ele>333.89</ele>
        <time>2022-01-22T16:00:30Z</time>
      </trkpt>
      <trkpt lat="44.56092" lon="1.73531">
        <ele>334.55</ele>
        <time>2022-01-22T16:00:44Z</time>
      </trkpt>
      <trkpt lat="44.56107" lon="1.73541">
        <ele>335.28</ele>
        <time>2022-01-22T16:00:57Z</time>
      </trkpt>
      <trkpt lat="44.56131" lon="1.73555">
        <ele>336.28</ele>
        <time>2022-01-22T16:01:18Z</time>
      </trkpt>
      <trkpt lat="44.56151" lon="1.73565">
        <ele>337.12</ele>
        <time>2022-01-22T16:01:36Z</time>
      </trkpt>
      <trkpt lat="44.56166" lon="1.73559">
        <ele>338.37</ele>
        <time>2022-01-22T16:01:49Z</time>
      </trkpt>
      <trkpt lat="44.56186" lon="1.7355">
        <ele>340.11</ele>
        <time>2022-01-22T16:02:03Z</time>
      </trkpt>
      <trkpt lat="44.56203" lon="1.73538">
        <ele>340.86</ele>
        <time>2022-01-22T16:02:13Z</time>
      </trkpt>
      <trkpt lat="44.56202" lon="1.73538">
        <ele>341.18</ele>
        <time>2022-01-22T16:02:18Z</time>
      </trkpt>
      <trkpt lat="44.56212" lon="1.73538">
        <ele>341.41</ele>
        <time>2022-01-22T16:02:35Z</time>
      </trkpt>
      <trkpt lat="44.56236" lon="1.73544">
        <ele>342.48</ele>
        <time>2022-01-22T16:02:53Z</time>
      </trkpt>
      <trkpt lat="44.56246" lon="1.73544">
        <ele>343.38</ele>
        <time>2022-01-22T16:03:01Z</time>
      </trkpt>
      <trkpt lat="44.56261" lon="1.73547">
        <ele>344.57</ele>
        <time>2022-01-22T16:03:11Z</time>
      </trkpt>
      <trkpt lat="44.56286" lon="1.73545">
        <ele>346.05</ele>
        <time>2022-01-22T16:03:28Z</time>
      </trkpt>
      <trkpt lat="44.56298" lon="1.73549">
        <ele>346.8</ele>
        <time>2022-01-22T16:03:38Z</time>
      </trkpt>
      <trkpt lat="44.56316" lon="1.73554">
        <ele>347.82</ele>
        <time>2022-01-22T16:03:54Z</time>
      </trkpt>
      <trkpt lat="44.56337" lon="1.73557">
        <ele>349.12</ele>
        <time>2022-01-22T16:04:11Z</time>
      </trkpt>
      <trkpt lat="44.56358" lon="1.73564">
        <ele>350.43</ele>
        <time>2022-01-22T16:04:27Z</time>
      </trkpt>
      <trkpt lat="44.56364" lon="1.73565">
        <ele>350.9</ele>
        <time>2022-01-22T16:04:33Z</time>
      </trkpt>
      <trkpt lat="44.56381" lon="1.73576">
        <ele>351.97</ele>
        <time>2022-01-22T16:04:48Z</time>
      </trkpt>
      <trkpt lat="44.5639" lon="1.73577">
        <ele>352.41</ele>
        <time>2022-01-22T16:04:54Z</time>
      </trkpt>
      <trkpt lat="44.564" lon="1.73578">
        <ele>352.75</ele>
        <time>2022-01-22T16:05:01Z</time>
      </trkpt>
      <trkpt lat="44.5642" lon="1.73587">
        <ele>353.65</ele>
        <time>2022-01-22T16:05:18Z</time>
      </trkpt>
      <trkpt lat="44.56443" lon="1.73579">
        <ele>354.59</ele>
        <time>2022-01-22T16:05:33Z</time>
      </trkpt>
      <trkpt lat="44.56462" lon="1.73589">
        <ele>355.25</ele>
        <time>2022-01-22T16:05:50Z</time>
      </trkpt>
      <trkpt lat="44.5647" lon="1.73596">
        <ele>355.49</ele>
        <time>2022-01-22T16:05:58Z</time>
      </trkpt>
      <trkpt lat="44.56479" lon="1.73602">
        <ele>355.82</ele>
        <time>2022-01-22T16:06:06Z</time>
      </trkpt>
      <trkpt lat="44.56483" lon="1.73623">
        <ele>355.81</ele>
        <time>2022-01-22T16:06:18Z</time>
      </trkpt>
      <trkpt lat="44.56489" lon="1.7363">
        <ele>355.68</ele>
        <time>2022-01-22T16:06:24Z</time>
      </trkpt>
      <trkpt lat="44.56511" lon="1.73643">
        <ele>355.23</ele>
        <time>2022-01-22T16:06:40Z</time>
      </trkpt>
      <trkpt lat="44.5653" lon="1.73654">
        <ele>354.01</ele>
        <time>2022-01-22T16:06:57Z</time>
      </trkpt>
      <trkpt lat="44.56535" lon="1.7367">
        <ele>353.32</ele>
        <time>2022-01-22T16:07:10Z</time>
      </trkpt>
      <trkpt lat="44.56558" lon="1.73681">
        <ele>352.96</ele>
        <time>2022-01-22T16:07:28Z</time>
      </trkpt>
      <trkpt lat="44.5657" lon="1.73683">
        <ele>352.78</ele>
        <time>2022-01-22T16:07:42Z</time>
      </trkpt>
      <trkpt lat="44.56593" lon="1.73679">
        <ele>352.49</ele>
        <time>2022-01-22T16:08:01Z</time>
      </trkpt>
      <trkpt lat="44.56605" lon="1.73682">
        <ele>351.89</ele>
        <time>2022-01-22T16:08:11Z</time>
      </trkpt>
      <trkpt lat="44.56615" lon="1.73693">
        <ele>351.24</ele>
        <time>2022-01-22T16:08:18Z</time>
      </trkpt>
      <trkpt lat="44.56626" lon="1.73699">
        <ele>349.88</ele>
        <time>2022-01-22T16:08:31Z</time>
      </trkpt>
      <trkpt lat="44.56643" lon="1.73711">
        <ele>348.88</ele>
        <time>2022-01-22T16:08:47Z</time>
      </trkpt>
      <trkpt lat="44.56651" lon="1.73726">
        <ele>347.73</ele>
        <time>2022-01-22T16:08:58Z</time>
      </trkpt>
      <trkpt lat="44.56659" lon="1.73735">
        <ele>346.75</ele>
        <time>2022-01-22T16:09:07Z</time>
      </trkpt>
      <trkpt lat="44.56671" lon="1.73741">
        <ele>345.68</ele>
        <time>2022-01-22T16:09:21Z</time>
      </trkpt>
      <trkpt lat="44.56669" lon="1.73727">
        <ele>345.73</ele>
        <time>2022-01-22T16:09:35Z</time>
      </trkpt>
      <trkpt lat="44.56668" lon="1.73716">
        <ele>346.74</ele>
        <time>2022-01-22T16:09:44Z</time>
      </trkpt>
      <trkpt lat="44.56643" lon="1.73749">
        <ele>347.53</ele>
        <time>2022-01-22T16:09:52Z</time>
      </trkpt>
      <trkpt lat="44.56633" lon="1.73736">
        <ele>348.95</ele>
        <time>2022-01-22T16:10:02Z</time>
      </trkpt>
      <trkpt lat="44.56631" lon="1.73728">
        <ele>349.74</ele>
        <time>2022-01-22T16:10:10Z</time>
      </trkpt>
      <trkpt lat="44.56633" lon="1.73719">
        <ele>350.22</ele>
        <time>2022-01-22T16:10:15Z</time>
      </trkpt>
      <trkpt lat="44.56632" lon="1.73714">
        <ele>350.56</ele>
        <time>2022-01-22T16:10:19Z</time>
      </trkpt>
      <trkpt lat="44.56632" lon="1.73702">
        <ele>351.74</ele>
        <time>2022-01-22T16:10:28Z</time>
      </trkpt>
      <trkpt lat="44.56631" lon="1.73673">
        <ele>353.28</ele>
        <time>2022-01-22T16:10:47Z</time>
      </trkpt>
      <trkpt lat="44.56627" lon="1.73646">
        <ele>353.76</ele>
        <time>2022-01-22T16:11:03Z</time>
      </trkpt>
      <trkpt lat="44.56627" lon="1.73634">
        <ele>353.9</ele>
        <time>2022-01-22T16:11:12Z</time>
      </trkpt>
      <trkpt lat="44.56624" lon="1.73582">
        <ele>354.09</ele>
        <time>2022-01-22T16:11:45Z</time>
      </trkpt>
      <trkpt lat="44.56617" lon="1.73555">
        <ele>353.82</ele>
        <time>2022-01-22T16:12:04Z</time>
      </trkpt>
      <trkpt lat="44.566" lon="1.73515">
        <ele>353.51</ele>
        <time>2022-01-22T16:12:24Z</time>
      </trkpt>
      <trkpt lat="44.56589" lon="1.73499">
        <ele>353.15</ele>
        <time>2022-01-22T16:12:34Z</time>
      </trkpt>
      <trkpt lat="44.56586" lon="1.73495">
        <ele>353.12</ele>
        <time>2022-01-22T16:12:36Z</time>
      </trkpt>
      <trkpt lat="44.56614" lon="1.73489">
        <ele>353.04</ele>
        <time>2022-01-22T16:12:49Z</time>
      </trkpt>
      <trkpt lat="44.56635" lon="1.73494">
        <ele>353.1</ele>
        <time>2022-01-22T16:13:01Z</time>
      </trkpt>
      <trkpt lat="44.56638" lon="1.73496">
        <ele>353.1</ele>
        <time>2022-01-22T16:13:03Z</time>
      </trkpt>
      <trkpt lat="44.56649" lon="1.73502">
        <ele>353.06</ele>
        <time>2022-01-22T16:13:28Z</time>
      </trkpt>
      <trkpt lat="44.56643" lon="1.735">
        <ele>353.08</ele>
        <time>2022-01-22T16:13:37Z</time>
      </trkpt>
      <trkpt lat="44.56635" lon="1.73483">
        <ele>353.27</ele>
        <time>2022-01-22T16:13:55Z</time>
      </trkpt>
      <trkpt lat="44.56624" lon="1.73459">
        <ele>353.03</ele>
        <time>2022-01-22T16:14:13Z</time>
      </trkpt>
      <trkpt lat="44.56616" lon="1.73448">
        <ele>352.86</ele>
        <time>2022-01-22T16:14:23Z</time>
      </trkpt>
      <trkpt lat="44.56608" lon="1.73413">
        <ele>352.32</ele>
        <time>2022-01-22T16:14:40Z</time>
      </trkpt>
      <trkpt lat="44.56609" lon="1.7339">
        <ele>351.44</ele>
        <time>2022-01-22T16:14:55Z</time>
      </trkpt>
      <trkpt lat="44.56609" lon="1.73386">
        <ele>351.27</ele>
        <time>2022-01-22T16:14:58Z</time>
      </trkpt>
      <trkpt lat="44.56606" lon="1.73356">
        <ele>350.5</ele>
        <time>2022-01-22T16:15:15Z</time>
      </trkpt>
      <trkpt lat="44.56607" lon="1.73346">
        <ele>350.36</ele>
        <time>2022-01-22T16:15:20Z</time>
      </trkpt>
      <trkpt lat="44.56603" lon="1.73335">
        <ele>350.04</ele>
        <time>2022-01-22T16:15:27Z</time>
      </trkpt>
      <trkpt lat="44.56593" lon="1.73311">
        <ele>349.76</ele>
        <time>2022-01-22T16:15:43Z</time>
      </trkpt>
      <trkpt lat="44.56589" lon="1.73298">
        <ele>349.59</ele>
        <time>2022-01-22T16:15:50Z</time>
      </trkpt>
      <trkpt lat="44.56587" lon="1.73276">
        <ele>349.26</ele>
        <time>2022-01-22T16:16:03Z</time>
      </trkpt>
      <trkpt lat="44.56584" lon="1.7325">
        <ele>349.33</ele>
        <time>2022-01-22T16:16:17Z</time>
      </trkpt>
      <trkpt lat="44.5658" lon="1.73229">
        <ele>349.5</ele>
        <time>2022-01-22T16:16:30Z</time>
      </trkpt>
      <trkpt lat="44.56579" lon="1.73201">
        <ele>349.97</ele>
        <time>2022-01-22T16:16:46Z</time>
      </trkpt>
      <trkpt lat="44.56578" lon="1.73181">
        <ele>350.42</ele>
        <time>2022-01-22T16:16:58Z</time>
      </trkpt>
      <trkpt lat="44.56584" lon="1.7316">
        <ele>350.85</ele>
        <time>2022-01-22T16:17:13Z</time>
      </trkpt>
      <trkpt lat="44.56583" lon="1.73153">
        <ele>350.91</ele>
        <time>2022-01-22T16:17:18Z</time>
      </trkpt>
      <trkpt lat="44.5659" lon="1.73136">
        <ele>350.9</ele>
        <time>2022-01-22T16:17:27Z</time>
      </trkpt>
      <trkpt lat="44.56594" lon="1.73125">
        <ele>350.86</ele>
        <time>2022-01-22T16:17:33Z</time>
      </trkpt>
      <trkpt lat="44.56594" lon="1.7312">
        <ele>350.84</ele>
        <time>2022-01-22T16:17:36Z</time>
      </trkpt>
      <trkpt lat="44.56595" lon="1.73101">
        <ele>350.46</ele>
        <time>2022-01-22T16:17:48Z</time>
      </trkpt>
      <trkpt lat="44.56595" lon="1.73098">
        <ele>350.39</ele>
        <time>2022-01-22T16:17:50Z</time>
      </trkpt>
      <trkpt lat="44.56594" lon="1.7309">
        <ele>350.2</ele>
        <time>2022-01-22T16:17:55Z</time>
      </trkpt>
      <trkpt lat="44.56596" lon="1.73085">
        <ele>350.06</ele>
        <time>2022-01-22T16:17:57Z</time>
      </trkpt>
      <trkpt lat="44.56596" lon="1.73073">
        <ele>349.68</ele>
        <time>2022-01-22T16:18:04Z</time>
      </trkpt>
      <trkpt lat="44.56596" lon="1.7307">
        <ele>349.51</ele>
        <time>2022-01-22T16:18:06Z</time>
      </trkpt>
      <trkpt lat="44.56592" lon="1.73047">
        <ele>348.79</ele>
        <time>2022-01-22T16:18:18Z</time>
      </trkpt>
      <trkpt lat="44.56589" lon="1.73035">
        <ele>348.29</ele>
        <time>2022-01-22T16:18:24Z</time>
      </trkpt>
      <trkpt lat="44.56588" lon="1.73027">
        <ele>347.93</ele>
        <time>2022-01-22T16:18:30Z</time>
      </trkpt>
      <trkpt lat="44.56582" lon="1.73017">
        <ele>347.63</ele>
        <time>2022-01-22T16:18:36Z</time>
      </trkpt>
      <trkpt lat="44.56582" lon="1.73007">
        <ele>347.32</ele>
        <time>2022-01-22T16:18:42Z</time>
      </trkpt>
      <trkpt lat="44.56585" lon="1.7298">
        <ele>346.45</ele>
        <time>2022-01-22T16:18:56Z</time>
      </trkpt>
      <trkpt lat="44.56586" lon="1.72975">
        <ele>346.03</ele>
        <time>2022-01-22T16:19:00Z</time>
      </trkpt>
      <trkpt lat="44.56585" lon="1.72967">
        <ele>345.6</ele>
        <time>2022-01-22T16:19:06Z</time>
      </trkpt>
      <trkpt lat="44.56583" lon="1.72952">
        <ele>345.15</ele>
        <time>2022-01-22T16:19:14Z</time>
      </trkpt>
      <trkpt lat="44.56585" lon="1.7294">
        <ele>344.84</ele>
        <time>2022-01-22T16:19:20Z</time>
      </trkpt>
      <trkpt lat="44.56591" lon="1.72917">
        <ele>343.92</ele>
        <time>2022-01-22T16:19:30Z</time>
      </trkpt>
      <trkpt lat="44.56594" lon="1.72893">
        <ele>343.08</ele>
        <time>2022-01-22T16:19:42Z</time>
      </trkpt>
      <trkpt lat="44.56595" lon="1.72866">
        <ele>342.33</ele>
        <time>2022-01-22T16:19:57Z</time>
      </trkpt>
      <trkpt lat="44.56598" lon="1.72837">
        <ele>341.91</ele>
        <time>2022-01-22T16:20:12Z</time>
      </trkpt>
      <trkpt lat="44.56601" lon="1.72812">
        <ele>341.45</ele>
        <time>2022-01-22T16:20:28Z</time>
      </trkpt>
      <trkpt lat="44.56607" lon="1.72787">
        <ele>341.02</ele>
        <time>2022-01-22T16:20:45Z</time>
      </trkpt>
      <trkpt lat="44.56607" lon="1.72761">
        <ele>340.35</ele>
        <time>2022-01-22T16:21:00Z</time>
      </trkpt>
      <trkpt lat="44.56601" lon="1.72752">
        <ele>339.34</ele>
        <time>2022-01-22T16:21:14Z</time>
      </trkpt>
      <trkpt lat="44.56602" lon="1.7275">
        <ele>339.25</ele>
        <time>2022-01-22T16:21:44Z</time>
      </trkpt>
      <trkpt lat="44.566" lon="1.72729">
        <ele>339.01</ele>
        <time>2022-01-22T16:21:57Z</time>
      </trkpt>
      <trkpt lat="44.56594" lon="1.72701">
        <ele>337.92</ele>
        <time>2022-01-22T16:22:13Z</time>
      </trkpt>
      <trkpt lat="44.56592" lon="1.72692">
        <ele>337.56</ele>
        <time>2022-01-22T16:22:18Z</time>
      </trkpt>
      <trkpt lat="44.56591" lon="1.72691">
        <ele>337.39</ele>
        <time>2022-01-22T16:22:19Z</time>
      </trkpt>
      <trkpt lat="44.5659" lon="1.7269">
        <ele>337.39</ele>
        <time>2022-01-22T16:22:20Z</time>
      </trkpt>
      <trkpt lat="44.5659" lon="1.72688">
        <ele>337.22</ele>
        <time>2022-01-22T16:22:21Z</time>
      </trkpt>
      <trkpt lat="44.56589" lon="1.72687">
        <ele>337.18</ele>
        <time>2022-01-22T16:22:22Z</time>
      </trkpt>
      <trkpt lat="44.56588" lon="1.72685">
        <ele>337.11</ele>
        <time>2022-01-22T16:22:23Z</time>
      </trkpt>
      <trkpt lat="44.56588" lon="1.72683">
        <ele>337.07</ele>
        <time>2022-01-22T16:22:24Z</time>
      </trkpt>
      <trkpt lat="44.56588" lon="1.72681">
        <ele>337</ele>
        <time>2022-01-22T16:22:25Z</time>
      </trkpt>
      <trkpt lat="44.56588" lon="1.72677">
        <ele>336.86</ele>
        <time>2022-01-22T16:22:27Z</time>
      </trkpt>
      <trkpt lat="44.56587" lon="1.72675">
        <ele>336.64</ele>
        <time>2022-01-22T16:22:28Z</time>
      </trkpt>
      <trkpt lat="44.56587" lon="1.72673">
        <ele>336.48</ele>
        <time>2022-01-22T16:22:29Z</time>
      </trkpt>
      <trkpt lat="44.56587" lon="1.72671">
        <ele>336.35</ele>
        <time>2022-01-22T16:22:30Z</time>
      </trkpt>
      <trkpt lat="44.56587" lon="1.72669">
        <ele>336.27</ele>
        <time>2022-01-22T16:22:31Z</time>
      </trkpt>
      <trkpt lat="44.56587" lon="1.72667">
        <ele>336.23</ele>
        <time>2022-01-22T16:22:32Z</time>
      </trkpt>
      <trkpt lat="44.56583" lon="1.72635">
        <ele>334.25</ele>
        <time>2022-01-22T16:22:49Z</time>
      </trkpt>
      <trkpt lat="44.56584" lon="1.72633">
        <ele>334.12</ele>
        <time>2022-01-22T16:22:50Z</time>
      </trkpt>
      <trkpt lat="44.56583" lon="1.72632">
        <ele>333.97</ele>
        <time>2022-01-22T16:22:51Z</time>
      </trkpt>
      <trkpt lat="44.56581" lon="1.7263">
        <ele>333.89</ele>
        <time>2022-01-22T16:22:52Z</time>
      </trkpt>
      <trkpt lat="44.56581" lon="1.72628">
        <ele>333.79</ele>
        <time>2022-01-22T16:22:53Z</time>
      </trkpt>
      <trkpt lat="44.5658" lon="1.72626">
        <ele>333.58</ele>
        <time>2022-01-22T16:22:54Z</time>
      </trkpt>
      <trkpt lat="44.5658" lon="1.72624">
        <ele>333.42</ele>
        <time>2022-01-22T16:22:55Z</time>
      </trkpt>
      <trkpt lat="44.5658" lon="1.72622">
        <ele>333.32</ele>
        <time>2022-01-22T16:22:56Z</time>
      </trkpt>
      <trkpt lat="44.56579" lon="1.72621">
        <ele>333.22</ele>
        <time>2022-01-22T16:22:57Z</time>
      </trkpt>
      <trkpt lat="44.56583" lon="1.72595">
        <ele>330.47</ele>
        <time>2022-01-22T16:23:12Z</time>
      </trkpt>
      <trkpt lat="44.56579" lon="1.72569">
        <ele>328.07</ele>
        <time>2022-01-22T16:23:26Z</time>
      </trkpt>
      <trkpt lat="44.56576" lon="1.72541">
        <ele>326.37</ele>
        <time>2022-01-22T16:23:42Z</time>
      </trkpt>
      <trkpt lat="44.56574" lon="1.72518">
        <ele>325.1</ele>
        <time>2022-01-22T16:23:55Z</time>
      </trkpt>
      <trkpt lat="44.56571" lon="1.72485">
        <ele>322.75</ele>
        <time>2022-01-22T16:24:13Z</time>
      </trkpt>
      <trkpt lat="44.56578" lon="1.72463">
        <ele>320.9</ele>
        <time>2022-01-22T16:24:24Z</time>
      </trkpt>
      <trkpt lat="44.56573" lon="1.72436">
        <ele>317.9</ele>
        <time>2022-01-22T16:24:41Z</time>
      </trkpt>
      <trkpt lat="44.56574" lon="1.72421">
        <ele>316.64</ele>
        <time>2022-01-22T16:24:51Z</time>
      </trkpt>
      <trkpt lat="44.56575" lon="1.72419">
        <ele>316.64</ele>
        <time>2022-01-22T16:24:55Z</time>
      </trkpt>
      <trkpt lat="44.5657" lon="1.72407">
        <ele>317.29</ele>
        <time>2022-01-22T16:25:03Z</time>
      </trkpt>
      <trkpt lat="44.56562" lon="1.72399">
        <ele>318.26</ele>
        <time>2022-01-22T16:25:13Z</time>
      </trkpt>
      <trkpt lat="44.56547" lon="1.7239">
        <ele>319.02</ele>
        <time>2022-01-22T16:25:21Z</time>
      </trkpt>
      <trkpt lat="44.5654" lon="1.72388">
        <ele>319.34</ele>
        <time>2022-01-22T16:25:24Z</time>
      </trkpt>
      <trkpt lat="44.56538" lon="1.72387">
        <ele>319.4</ele>
        <time>2022-01-22T16:25:25Z</time>
      </trkpt>
      <trkpt lat="44.56536" lon="1.72387">
        <ele>319.49</ele>
        <time>2022-01-22T16:25:26Z</time>
      </trkpt>
      <trkpt lat="44.56535" lon="1.72386">
        <ele>319.59</ele>
        <time>2022-01-22T16:25:27Z</time>
      </trkpt>
      <trkpt lat="44.56534" lon="1.72386">
        <ele>319.68</ele>
        <time>2022-01-22T16:25:28Z</time>
      </trkpt>
      <trkpt lat="44.56524" lon="1.72381">
        <ele>320.19</ele>
        <time>2022-01-22T16:25:38Z</time>
      </trkpt>
      <trkpt lat="44.56494" lon="1.72374">
        <ele>320.87</ele>
        <time>2022-01-22T16:25:58Z</time>
      </trkpt>
      <trkpt lat="44.56486" lon="1.72373">
        <ele>320.91</ele>
        <time>2022-01-22T16:26:04Z</time>
      </trkpt>
      <trkpt lat="44.56485" lon="1.72373">
        <ele>320.91</ele>
        <time>2022-01-22T16:26:05Z</time>
      </trkpt>
      <trkpt lat="44.56484" lon="1.72373">
        <ele>320.91</ele>
        <time>2022-01-22T16:26:06Z</time>
      </trkpt>
      <trkpt lat="44.56482" lon="1.72373">
        <ele>320.91</ele>
        <time>2022-01-22T16:26:07Z</time>
      </trkpt>
      <trkpt lat="44.56481" lon="1.72372">
        <ele>320.91</ele>
        <time>2022-01-22T16:26:08Z</time>
      </trkpt>
      <trkpt lat="44.56465" lon="1.72367">
        <ele>320.74</ele>
        <time>2022-01-22T16:26:21Z</time>
      </trkpt>
      <trkpt lat="44.56446" lon="1.72368">
        <ele>320.31</ele>
        <time>2022-01-22T16:26:36Z</time>
      </trkpt>
      <trkpt lat="44.56426" lon="1.72374">
        <ele>320.04</ele>
        <time>2022-01-22T16:26:52Z</time>
      </trkpt>
      <trkpt lat="44.56408" lon="1.72378">
        <ele>319.85</ele>
        <time>2022-01-22T16:27:06Z</time>
      </trkpt>
      <trkpt lat="44.56381" lon="1.72378">
        <ele>319.08</ele>
        <time>2022-01-22T16:27:28Z</time>
      </trkpt>
      <trkpt lat="44.56355" lon="1.7238">
        <ele>318.52</ele>
        <time>2022-01-22T16:27:47Z</time>
      </trkpt>
      <trkpt lat="44.56333" lon="1.72393">
        <ele>318.35</ele>
        <time>2022-01-22T16:28:03Z</time>
      </trkpt>
      <trkpt lat="44.56332" lon="1.72394">
        <ele>318.36</ele>
        <time>2022-01-22T16:28:04Z</time>
      </trkpt>
      <trkpt lat="44.56331" lon="1.72394">
        <ele>318.37</ele>
        <time>2022-01-22T16:28:05Z</time>
      </trkpt>
      <trkpt lat="44.56329" lon="1.72394">
        <ele>318.37</ele>
        <time>2022-01-22T16:28:06Z</time>
      </trkpt>
      <trkpt lat="44.56328" lon="1.72395">
        <ele>318.37</ele>
        <time>2022-01-22T16:28:07Z</time>
      </trkpt>
      <trkpt lat="44.56326" lon="1.72395">
        <ele>318.37</ele>
        <time>2022-01-22T16:28:08Z</time>
      </trkpt>
      <trkpt lat="44.56325" lon="1.72395">
        <ele>318.37</ele>
        <time>2022-01-22T16:28:09Z</time>
      </trkpt>
      <trkpt lat="44.56324" lon="1.72396">
        <ele>318.37</ele>
        <time>2022-01-22T16:28:10Z</time>
      </trkpt>
      <trkpt lat="44.56322" lon="1.72397">
        <ele>318.37</ele>
        <time>2022-01-22T16:28:11Z</time>
      </trkpt>
      <trkpt lat="44.56321" lon="1.72398">
        <ele>318.36</ele>
        <time>2022-01-22T16:28:12Z</time>
      </trkpt>
      <trkpt lat="44.56319" lon="1.724">
        <ele>318.34</ele>
        <time>2022-01-22T16:28:13Z</time>
      </trkpt>
      <trkpt lat="44.56318" lon="1.724">
        <ele>318.33</ele>
        <time>2022-01-22T16:28:14Z</time>
      </trkpt>
      <trkpt lat="44.56317" lon="1.72401">
        <ele>318.32</ele>
        <time>2022-01-22T16:28:15Z</time>
      </trkpt>
      <trkpt lat="44.56316" lon="1.72402">
        <ele>318.31</ele>
        <time>2022-01-22T16:28:16Z</time>
      </trkpt>
      <trkpt lat="44.56315" lon="1.72403">
        <ele>318.3</ele>
        <time>2022-01-22T16:28:17Z</time>
      </trkpt>
      <trkpt lat="44.56287" lon="1.72408">
        <ele>317.56</ele>
        <time>2022-01-22T16:28:35Z</time>
      </trkpt>
      <trkpt lat="44.56274" lon="1.72404">
        <ele>317.14</ele>
        <time>2022-01-22T16:28:43Z</time>
      </trkpt>
      <trkpt lat="44.56273" lon="1.72404">
        <ele>317.14</ele>
        <time>2022-01-22T16:28:44Z</time>
      </trkpt>
      <trkpt lat="44.56272" lon="1.72404">
        <ele>317.1</ele>
        <time>2022-01-22T16:28:45Z</time>
      </trkpt>
      <trkpt lat="44.56254" lon="1.72389">
        <ele>316.7</ele>
        <time>2022-01-22T16:29:03Z</time>
      </trkpt>
      <trkpt lat="44.56252" lon="1.72376">
        <ele>316.9</ele>
        <time>2022-01-22T16:29:12Z</time>
      </trkpt>
      <trkpt lat="44.56255" lon="1.72369">
        <ele>317.5</ele>
        <time>2022-01-22T16:29:18Z</time>
      </trkpt>
      <trkpt lat="44.56262" lon="1.72357">
        <ele>318.46</ele>
        <time>2022-01-22T16:29:27Z</time>
      </trkpt>
      <trkpt lat="44.56267" lon="1.72343">
        <ele>319.24</ele>
        <time>2022-01-22T16:29:38Z</time>
      </trkpt>
      <trkpt lat="44.56269" lon="1.72334">
        <ele>319.78</ele>
        <time>2022-01-22T16:29:45Z</time>
      </trkpt>
      <trkpt lat="44.56269" lon="1.72328">
        <ele>319.86</ele>
        <time>2022-01-22T16:29:48Z</time>
      </trkpt>
      <trkpt lat="44.56281" lon="1.72305">
        <ele>320.28</ele>
        <time>2022-01-22T16:29:57Z</time>
      </trkpt>
      <trkpt lat="44.56281" lon="1.72301">
        <ele>320.44</ele>
        <time>2022-01-22T16:29:59Z</time>
      </trkpt>
      <trkpt lat="44.56281" lon="1.72291">
        <ele>320.91</ele>
        <time>2022-01-22T16:30:08Z</time>
      </trkpt>
      <trkpt lat="44.56295" lon="1.72265">
        <ele>320.93</ele>
        <time>2022-01-22T16:30:23Z</time>
      </trkpt>
      <trkpt lat="44.56302" lon="1.72244">
        <ele>320.3</ele>
        <time>2022-01-22T16:30:39Z</time>
      </trkpt>
      <trkpt lat="44.5631" lon="1.7223">
        <ele>319.38</ele>
        <time>2022-01-22T16:30:50Z</time>
      </trkpt>
      <trkpt lat="44.56322" lon="1.72218">
        <ele>318.61</ele>
        <time>2022-01-22T16:31:00Z</time>
      </trkpt>
      <trkpt lat="44.56333" lon="1.72198">
        <ele>317.49</ele>
        <time>2022-01-22T16:31:10Z</time>
      </trkpt>
      <trkpt lat="44.56332" lon="1.72197">
        <ele>317.43</ele>
        <time>2022-01-22T16:31:11Z</time>
      </trkpt>
      <trkpt lat="44.56336" lon="1.72173">
        <ele>315.83</ele>
        <time>2022-01-22T16:31:25Z</time>
      </trkpt>
      <trkpt lat="44.56337" lon="1.72172">
        <ele>315.67</ele>
        <time>2022-01-22T16:31:26Z</time>
      </trkpt>
      <trkpt lat="44.5634" lon="1.72168">
        <ele>314.93</ele>
        <time>2022-01-22T16:31:30Z</time>
      </trkpt>
      <trkpt lat="44.56349" lon="1.72145">
        <ele>312.57</ele>
        <time>2022-01-22T16:31:45Z</time>
      </trkpt>
      <trkpt lat="44.5635" lon="1.72135">
        <ele>311.16</ele>
        <time>2022-01-22T16:31:55Z</time>
      </trkpt>
      <trkpt lat="44.56362" lon="1.72116">
        <ele>308.77</ele>
        <time>2022-01-22T16:32:08Z</time>
      </trkpt>
      <trkpt lat="44.56364" lon="1.72107">
        <ele>307.69</ele>
        <time>2022-01-22T16:32:16Z</time>
      </trkpt>
      <trkpt lat="44.56368" lon="1.72093">
        <ele>306.46</ele>
        <time>2022-01-22T16:32:25Z</time>
      </trkpt>
      <trkpt lat="44.56376" lon="1.72066">
        <ele>303.65</ele>
        <time>2022-01-22T16:32:46Z</time>
      </trkpt>
      <trkpt lat="44.56389" lon="1.72048">
        <ele>300.61</ele>
        <time>2022-01-22T16:33:02Z</time>
      </trkpt>
      <trkpt lat="44.56398" lon="1.72026">
        <ele>297.53</ele>
        <time>2022-01-22T16:33:18Z</time>
      </trkpt>
      <trkpt lat="44.56412" lon="1.71999">
        <ele>294.5</ele>
        <time>2022-01-22T16:33:34Z</time>
      </trkpt>
      <trkpt lat="44.56435" lon="1.7198">
        <ele>291.41</ele>
        <time>2022-01-22T16:33:54Z</time>
      </trkpt>
      <trkpt lat="44.56463" lon="1.71961">
        <ele>288.31</ele>
        <time>2022-01-22T16:34:16Z</time>
      </trkpt>
      <trkpt lat="44.5648" lon="1.71952">
        <ele>285.53</ele>
        <time>2022-01-22T16:34:31Z</time>
      </trkpt>
      <trkpt lat="44.5649" lon="1.71947">
        <ele>282.99</ele>
        <time>2022-01-22T16:34:46Z</time>
      </trkpt>
      <trkpt lat="44.56514" lon="1.71944">
        <ele>280.8</ele>
        <time>2022-01-22T16:35:02Z</time>
      </trkpt>
      <trkpt lat="44.56527" lon="1.71939">
        <ele>279.53</ele>
        <time>2022-01-22T16:35:13Z</time>
      </trkpt>
      <trkpt lat="44.56539" lon="1.71934">
        <ele>278.86</ele>
        <time>2022-01-22T16:35:21Z</time>
      </trkpt>
      <trkpt lat="44.56555" lon="1.7193">
        <ele>277.84</ele>
        <time>2022-01-22T16:35:32Z</time>
      </trkpt>
      <trkpt lat="44.56586" lon="1.71945">
        <ele>276.46</ele>
        <time>2022-01-22T16:35:54Z</time>
      </trkpt>
      <trkpt lat="44.5659" lon="1.71944">
        <ele>276.43</ele>
        <time>2022-01-22T16:35:55Z</time>
      </trkpt>
      <trkpt lat="44.56595" lon="1.71954">
        <ele>276.25</ele>
        <time>2022-01-22T16:36:04Z</time>
      </trkpt>
      <trkpt lat="44.56613" lon="1.71967">
        <ele>275.78</ele>
        <time>2022-01-22T16:36:19Z</time>
      </trkpt>
      <trkpt lat="44.56625" lon="1.71972">
        <ele>275.08</ele>
        <time>2022-01-22T16:36:33Z</time>
      </trkpt>
      <trkpt lat="44.56646" lon="1.71959">
        <ele>293.3</ele>
      </trkpt>
      <trkpt lat="44.56659" lon="1.71957">
        <ele>292.7</ele>
      </trkpt>
      <trkpt lat="44.56673" lon="1.71944">
        <ele>291.3</ele>
      </trkpt>
      <trkpt lat="44.56671" lon="1.71946">
        <ele>255.3</ele>
        <time>2022-01-22T12:15:27Z</time>
      </trkpt>
      <trkpt lat="44.56663" lon="1.71959">
        <ele>255.47</ele>
        <time>2022-01-22T12:15:43Z</time>
      </trkpt>
      <trkpt lat="44.56659" lon="1.7196">
        <ele>292.8</ele>
        <time>2022-01-22T12:16:03Z</time>
      </trkpt>
      <trkpt lat="44.56655" lon="1.7196">
        <ele>293</ele>
        <time>2022-01-22T12:16:37Z</time>
      </trkpt>
      <trkpt lat="44.5665" lon="1.71962">
        <ele>257.27</ele>
        <time>2022-01-22T12:16:56Z</time>
      </trkpt>
      <trkpt lat="44.56643" lon="1.71963">
        <ele>257.39</ele>
        <time>2022-01-22T12:17:25Z</time>
      </trkpt>
      <trkpt lat="44.56643" lon="1.7197">
        <ele>257.62</ele>
        <time>2022-01-22T12:17:46Z</time>
      </trkpt>
      <trkpt lat="44.56642" lon="1.7197">
        <ele>257.62</ele>
        <time>2022-01-22T12:17:47Z</time>
      </trkpt>
      <trkpt lat="44.56638" lon="1.71959">
        <ele>257.62</ele>
        <time>2022-01-22T12:17:52Z</time>
      </trkpt>
      <trkpt lat="44.56632" lon="1.71964">
        <ele>294</ele>
        <time>2022-01-22T12:18:09Z</time>
      </trkpt>
      <trkpt lat="44.56628" lon="1.71967">
        <ele>294.3</ele>
        <time>2022-01-22T12:18:21Z</time>
      </trkpt>
      <trkpt lat="44.56626" lon="1.71966">
        <ele>294.3</ele>
        <time>2022-01-22T12:18:37Z</time>
      </trkpt>
      <trkpt lat="44.56625" lon="1.71965">
        <ele>294.4</ele>
      </trkpt>
      <trkpt lat="44.56619" lon="1.71965">
        <ele>294.6</ele>
        <time>2022-01-22T12:18:39Z</time>
      </trkpt>
      <trkpt lat="44.56616" lon="1.71966">
        <ele>294.8</ele>
        <time>2022-01-22T12:18:45Z</time>
      </trkpt>
      <trkpt lat="44.56612" lon="1.71961">
        <ele>295</ele>
        <time>2022-01-22T12:18:46Z</time>
      </trkpt>
      <trkpt lat="44.56605" lon="1.71959">
        <ele>295.5</ele>
        <time>2022-01-22T12:18:47Z</time>
      </trkpt>
      <trkpt lat="44.56599" lon="1.71955">
        <ele>295.9</ele>
        <time>2022-01-22T12:18:57Z</time>
      </trkpt>
      <trkpt lat="44.56594" lon="1.71945">
        <ele>296.2</ele>
        <time>2022-01-22T12:19:12Z</time>
      </trkpt>
      <trkpt lat="44.5657" lon="1.7193">
        <ele>261.93</ele>
        <time>2022-01-22T12:19:31Z</time>
      </trkpt>
      <trkpt lat="44.56552" lon="1.71928">
        <ele>262.09</ele>
        <time>2022-01-22T12:19:43Z</time>
      </trkpt>
      <trkpt lat="44.56551" lon="1.71928">
        <ele>262.11</ele>
        <time>2022-01-22T12:19:44Z</time>
      </trkpt>
      <trkpt lat="44.56543" lon="1.71931">
        <ele>262.21</ele>
        <time>2022-01-22T12:19:50Z</time>
      </trkpt>
      <trkpt lat="44.5654" lon="1.71931">
        <ele>262.22</ele>
        <time>2022-01-22T12:19:52Z</time>
      </trkpt>
      <trkpt lat="44.56537" lon="1.7193">
        <ele>262.39</ele>
        <time>2022-01-22T12:19:54Z</time>
      </trkpt>
      <trkpt lat="44.56534" lon="1.71932">
        <ele>262.96</ele>
        <time>2022-01-22T12:19:58Z</time>
      </trkpt>
      <trkpt lat="44.56532" lon="1.71932">
        <ele>263.02</ele>
        <time>2022-01-22T12:19:59Z</time>
      </trkpt>
      <trkpt lat="44.56531" lon="1.71933">
        <ele>263.09</ele>
        <time>2022-01-22T12:20:00Z</time>
      </trkpt>
      <trkpt lat="44.56529" lon="1.71933">
        <ele>263.17</ele>
        <time>2022-01-22T12:20:01Z</time>
      </trkpt>
      <trkpt lat="44.56528" lon="1.71933">
        <ele>263.23</ele>
        <time>2022-01-22T12:20:02Z</time>
      </trkpt>
      <trkpt lat="44.56527" lon="1.71933">
        <ele>263.32</ele>
        <time>2022-01-22T12:20:03Z</time>
      </trkpt>
      <trkpt lat="44.56526" lon="1.71933">
        <ele>263.36</ele>
        <time>2022-01-22T12:20:04Z</time>
      </trkpt>
      <trkpt lat="44.56525" lon="1.71933">
        <ele>263.39</ele>
        <time>2022-01-22T12:20:05Z</time>
      </trkpt>
      <trkpt lat="44.56523" lon="1.71933">
        <ele>263.41</ele>
        <time>2022-01-22T12:20:06Z</time>
      </trkpt>
      <trkpt lat="44.56522" lon="1.71933">
        <ele>263.47</ele>
        <time>2022-01-22T12:20:07Z</time>
      </trkpt>
      <trkpt lat="44.56521" lon="1.71934">
        <ele>263.54</ele>
        <time>2022-01-22T12:20:08Z</time>
      </trkpt>
      <trkpt lat="44.565" lon="1.71936">
        <ele>265.5</ele>
        <time>2022-01-22T12:20:27Z</time>
      </trkpt>
      <trkpt lat="44.56484" lon="1.71939">
        <ele>267.37</ele>
        <time>2022-01-22T12:20:43Z</time>
      </trkpt>
      <trkpt lat="44.56481" lon="1.71939">
        <ele>268.22</ele>
        <time>2022-01-22T12:20:48Z</time>
      </trkpt>
      <trkpt lat="44.5648" lon="1.71939">
        <ele>268.35</ele>
        <time>2022-01-22T12:20:49Z</time>
      </trkpt>
      <trkpt lat="44.56478" lon="1.71941">
        <ele>268.62</ele>
        <time>2022-01-22T12:20:51Z</time>
      </trkpt>
      <trkpt lat="44.56466" lon="1.7195">
        <ele>270.04</ele>
        <time>2022-01-22T12:21:05Z</time>
      </trkpt>
      <trkpt lat="44.5645" lon="1.71963">
        <ele>272.31</ele>
        <time>2022-01-22T12:21:23Z</time>
      </trkpt>
      <trkpt lat="44.56435" lon="1.71978">
        <ele>275.41</ele>
        <time>2022-01-22T12:21:45Z</time>
      </trkpt>
      <trkpt lat="44.56427" lon="1.71985">
        <ele>276.52</ele>
        <time>2022-01-22T12:22:00Z</time>
      </trkpt>
      <trkpt lat="44.56416" lon="1.72004">
        <ele>278.71</ele>
        <time>2022-01-22T12:22:17Z</time>
      </trkpt>
      <trkpt lat="44.56405" lon="1.72028">
        <ele>281.8</ele>
        <time>2022-01-22T12:22:36Z</time>
      </trkpt>
      <trkpt lat="44.56391" lon="1.72051">
        <ele>285</ele>
        <time>2022-01-22T12:22:55Z</time>
      </trkpt>
      <trkpt lat="44.56379" lon="1.72069">
        <ele>287.87</ele>
        <time>2022-01-22T12:23:13Z</time>
      </trkpt>
      <trkpt lat="44.56376" lon="1.72078">
        <ele>288.63</ele>
        <time>2022-01-22T12:23:17Z</time>
      </trkpt>
      <trkpt lat="44.56374" lon="1.72088">
        <ele>289.96</ele>
        <time>2022-01-22T12:23:25Z</time>
      </trkpt>
      <trkpt lat="44.56367" lon="1.72108">
        <ele>291.74</ele>
        <time>2022-01-22T12:23:40Z</time>
      </trkpt>
      <trkpt lat="44.56356" lon="1.72134">
        <ele>293.82</ele>
        <time>2022-01-22T12:24:00Z</time>
      </trkpt>
      <trkpt lat="44.56348" lon="1.72153">
        <ele>296.01</ele>
        <time>2022-01-22T12:24:14Z</time>
      </trkpt>
      <trkpt lat="44.56336" lon="1.72178">
        <ele>298.64</ele>
        <time>2022-01-22T12:24:33Z</time>
      </trkpt>
      <trkpt lat="44.56327" lon="1.72203">
        <ele>301.67</ele>
        <time>2022-01-22T12:24:52Z</time>
      </trkpt>
      <trkpt lat="44.56321" lon="1.72217">
        <ele>302.63</ele>
        <time>2022-01-22T12:25:02Z</time>
      </trkpt>
      <trkpt lat="44.56309" lon="1.72239">
        <ele>304.29</ele>
        <time>2022-01-22T12:25:18Z</time>
      </trkpt>
      <trkpt lat="44.56308" lon="1.72242">
        <ele>304.48</ele>
        <time>2022-01-22T12:25:21Z</time>
      </trkpt>
      <trkpt lat="44.56297" lon="1.7227">
        <ele>305.93</ele>
        <time>2022-01-22T12:25:39Z</time>
      </trkpt>
      <trkpt lat="44.56289" lon="1.72285">
        <ele>306.57</ele>
        <time>2022-01-22T12:25:52Z</time>
      </trkpt>
      <trkpt lat="44.56288" lon="1.72288">
        <ele>306.68</ele>
        <time>2022-01-22T12:25:54Z</time>
      </trkpt>
      <trkpt lat="44.56285" lon="1.72295">
        <ele>306.81</ele>
        <time>2022-01-22T12:25:59Z</time>
      </trkpt>
      <trkpt lat="44.56281" lon="1.72314">
        <ele>306.76</ele>
        <time>2022-01-22T12:26:10Z</time>
      </trkpt>
      <trkpt lat="44.5628" lon="1.72321">
        <ele>306.61</ele>
        <time>2022-01-22T12:26:15Z</time>
      </trkpt>
      <trkpt lat="44.56274" lon="1.72344">
        <ele>305.9</ele>
        <time>2022-01-22T12:26:29Z</time>
      </trkpt>
      <trkpt lat="44.56273" lon="1.72347">
        <ele>305.72</ele>
        <time>2022-01-22T12:26:31Z</time>
      </trkpt>
      <trkpt lat="44.56267" lon="1.72359">
        <ele>305.24</ele>
        <time>2022-01-22T12:26:38Z</time>
      </trkpt>
      <trkpt lat="44.56264" lon="1.72369">
        <ele>305</ele>
        <time>2022-01-22T12:26:46Z</time>
      </trkpt>
      <trkpt lat="44.56265" lon="1.72372">
        <ele>304.73</ele>
        <time>2022-01-22T12:26:48Z</time>
      </trkpt>
      <trkpt lat="44.56271" lon="1.72384">
        <ele>303.81</ele>
        <time>2022-01-22T12:26:57Z</time>
      </trkpt>
      <trkpt lat="44.56282" lon="1.72399">
        <ele>302.88</ele>
        <time>2022-01-22T12:27:08Z</time>
      </trkpt>
      <trkpt lat="44.56284" lon="1.72406">
        <ele>302.63</ele>
        <time>2022-01-22T12:27:15Z</time>
      </trkpt>
      <trkpt lat="44.56286" lon="1.72407">
        <ele>302.63</ele>
        <time>2022-01-22T12:27:17Z</time>
      </trkpt>
      <trkpt lat="44.5629" lon="1.72408">
        <ele>302.73</ele>
        <time>2022-01-22T12:27:21Z</time>
      </trkpt>
      <trkpt lat="44.56292" lon="1.72407">
        <ele>302.78</ele>
        <time>2022-01-22T12:27:23Z</time>
      </trkpt>
      <trkpt lat="44.56299" lon="1.72407">
        <ele>302.89</ele>
        <time>2022-01-22T12:27:29Z</time>
      </trkpt>
      <trkpt lat="44.56314" lon="1.72401">
        <ele>303.21</ele>
        <time>2022-01-22T12:27:41Z</time>
      </trkpt>
      <trkpt lat="44.56328" lon="1.72398">
        <ele>303.83</ele>
        <time>2022-01-22T12:27:52Z</time>
      </trkpt>
      <trkpt lat="44.56335" lon="1.72394">
        <ele>304.04</ele>
        <time>2022-01-22T12:28:00Z</time>
      </trkpt>
      <trkpt lat="44.56338" lon="1.72392">
        <ele>304.1</ele>
        <time>2022-01-22T12:28:03Z</time>
      </trkpt>
      <trkpt lat="44.56341" lon="1.72389">
        <ele>304.14</ele>
        <time>2022-01-22T12:28:06Z</time>
      </trkpt>
      <trkpt lat="44.56357" lon="1.72383">
        <ele>304.41</ele>
        <time>2022-01-22T12:28:15Z</time>
      </trkpt>
      <trkpt lat="44.56359" lon="1.72383">
        <ele>304.44</ele>
        <time>2022-01-22T12:28:16Z</time>
      </trkpt>
      <trkpt lat="44.56364" lon="1.72381">
        <ele>304.47</ele>
        <time>2022-01-22T12:28:20Z</time>
      </trkpt>
      <trkpt lat="44.56368" lon="1.7238">
        <ele>304.53</ele>
        <time>2022-01-22T12:28:24Z</time>
      </trkpt>
      <trkpt lat="44.56373" lon="1.72379">
        <ele>304.54</ele>
        <time>2022-01-22T12:28:28Z</time>
      </trkpt>
      <trkpt lat="44.56376" lon="1.72378">
        <ele>304.59</ele>
        <time>2022-01-22T12:28:31Z</time>
      </trkpt>
      <trkpt lat="44.56398" lon="1.72378">
        <ele>304.99</ele>
        <time>2022-01-22T12:28:51Z</time>
      </trkpt>
      <trkpt lat="44.56414" lon="1.72377">
        <ele>306.05</ele>
        <time>2022-01-22T12:29:06Z</time>
      </trkpt>
      <trkpt lat="44.56417" lon="1.72376">
        <ele>306.18</ele>
        <time>2022-01-22T12:29:09Z</time>
      </trkpt>
      <trkpt lat="44.56428" lon="1.72372">
        <ele>306.5</ele>
        <time>2022-01-22T12:29:18Z</time>
      </trkpt>
      <trkpt lat="44.56432" lon="1.72369">
        <ele>306.8</ele>
        <time>2022-01-22T12:29:22Z</time>
      </trkpt>
      <trkpt lat="44.56437" lon="1.72366">
        <ele>306.84</ele>
        <time>2022-01-22T12:29:26Z</time>
      </trkpt>
      <trkpt lat="44.5645" lon="1.72365">
        <ele>306.88</ele>
        <time>2022-01-22T12:29:42Z</time>
      </trkpt>
      <trkpt lat="44.56471" lon="1.72366">
        <ele>307.51</ele>
        <time>2022-01-22T12:29:58Z</time>
      </trkpt>
      <trkpt lat="44.56473" lon="1.72367">
        <ele>307.55</ele>
        <time>2022-01-22T12:30:00Z</time>
      </trkpt>
      <trkpt lat="44.56482" lon="1.72372">
        <ele>307.67</ele>
        <time>2022-01-22T12:30:07Z</time>
      </trkpt>
      <trkpt lat="44.56489" lon="1.72374">
        <ele>307.85</ele>
        <time>2022-01-22T12:30:16Z</time>
      </trkpt>
      <trkpt lat="44.56505" lon="1.72379">
        <ele>308.2</ele>
        <time>2022-01-22T12:30:30Z</time>
      </trkpt>
      <trkpt lat="44.56517" lon="1.72379">
        <ele>308</ele>
        <time>2022-01-22T12:30:46Z</time>
      </trkpt>
      <trkpt lat="44.56531" lon="1.7238">
        <ele>307.69</ele>
        <time>2022-01-22T12:30:57Z</time>
      </trkpt>
      <trkpt lat="44.56537" lon="1.72387">
        <ele>307.26</ele>
        <time>2022-01-22T12:31:07Z</time>
      </trkpt>
      <trkpt lat="44.56578" lon="1.7239">
        <ele>304.1</ele>
        <time>2022-01-22T12:31:49Z</time>
      </trkpt>
      <trkpt lat="44.56583" lon="1.72384">
        <ele>303.57</ele>
        <time>2022-01-22T12:31:58Z</time>
      </trkpt>
      <trkpt lat="44.56583" lon="1.72394">
        <ele>303.55</ele>
        <time>2022-01-22T12:32:11Z</time>
      </trkpt>
      <trkpt lat="44.56584" lon="1.72394">
        <ele>303.57</ele>
        <time>2022-01-22T12:32:15Z</time>
      </trkpt>
      <trkpt lat="44.5659" lon="1.724">
        <ele>300.69</ele>
        <time>2022-01-22T12:32:41Z</time>
      </trkpt>
      <trkpt lat="44.56602" lon="1.72388">
        <ele>299.26</ele>
        <time>2022-01-22T12:33:01Z</time>
      </trkpt>
      <trkpt lat="44.56608" lon="1.72381">
        <ele>296.79</ele>
        <time>2022-01-22T12:33:10Z</time>
      </trkpt>
      <trkpt lat="44.56611" lon="1.72386">
        <ele>294.58</ele>
        <time>2022-01-22T12:33:20Z</time>
      </trkpt>
      <trkpt lat="44.56614" lon="1.72392">
        <ele>293.63</ele>
        <time>2022-01-22T12:33:43Z</time>
      </trkpt>
      <trkpt lat="44.5661" lon="1.72403">
        <ele>293.7</ele>
        <time>2022-01-22T12:34:00Z</time>
      </trkpt>
      <trkpt lat="44.56612" lon="1.72404">
        <ele>293.65</ele>
        <time>2022-01-22T12:34:12Z</time>
      </trkpt>
      <trkpt lat="44.56624" lon="1.72415">
        <ele>293.41</ele>
        <time>2022-01-22T12:34:24Z</time>
      </trkpt>
      <trkpt lat="44.5663" lon="1.72424">
        <ele>293.32</ele>
        <time>2022-01-22T12:34:33Z</time>
      </trkpt>
      <trkpt lat="44.56635" lon="1.72434">
        <ele>292.96</ele>
        <time>2022-01-22T12:34:43Z</time>
      </trkpt>
      <trkpt lat="44.56636" lon="1.72438">
        <ele>292.84</ele>
        <time>2022-01-22T12:34:46Z</time>
      </trkpt>
      <trkpt lat="44.56639" lon="1.72442">
        <ele>292.74</ele>
        <time>2022-01-22T12:34:50Z</time>
      </trkpt>
      <trkpt lat="44.56643" lon="1.72449">
        <ele>292.57</ele>
        <time>2022-01-22T12:34:56Z</time>
      </trkpt>
      <trkpt lat="44.56652" lon="1.72458">
        <ele>292.18</ele>
        <time>2022-01-22T12:35:06Z</time>
      </trkpt>
      <trkpt lat="44.56654" lon="1.72461">
        <ele>292.02</ele>
        <time>2022-01-22T12:35:09Z</time>
      </trkpt>
      <trkpt lat="44.56657" lon="1.72466">
        <ele>291.91</ele>
        <time>2022-01-22T12:35:13Z</time>
      </trkpt>
      <trkpt lat="44.56675" lon="1.72476">
        <ele>292.21</ele>
        <time>2022-01-22T12:35:40Z</time>
      </trkpt>
      <trkpt lat="44.56677" lon="1.72476">
        <ele>292.21</ele>
        <time>2022-01-22T12:35:42Z</time>
      </trkpt>
      <trkpt lat="44.56683" lon="1.72492">
        <ele>291.51</ele>
        <time>2022-01-22T12:35:54Z</time>
      </trkpt>
      <trkpt lat="44.56708" lon="1.72496">
        <ele>290</ele>
        <time>2022-01-22T12:36:09Z</time>
      </trkpt>
      <trkpt lat="44.56723" lon="1.72506">
        <ele>289.52</ele>
        <time>2022-01-22T12:36:22Z</time>
      </trkpt>
      <trkpt lat="44.56754" lon="1.72525">
        <ele>288.02</ele>
        <time>2022-01-22T12:36:48Z</time>
      </trkpt>
      <trkpt lat="44.56765" lon="1.72531">
        <ele>287.91</ele>
        <time>2022-01-22T12:36:55Z</time>
      </trkpt>
      <trkpt lat="44.56768" lon="1.72533">
        <ele>287.9</ele>
        <time>2022-01-22T12:36:58Z</time>
      </trkpt>
      <trkpt lat="44.56772" lon="1.72537">
        <ele>287.74</ele>
        <time>2022-01-22T12:37:02Z</time>
      </trkpt>
      <trkpt lat="44.56782" lon="1.72539">
        <ele>287.25</ele>
        <time>2022-01-22T12:37:09Z</time>
      </trkpt>
      <trkpt lat="44.56784" lon="1.7254">
        <ele>287.13</ele>
        <time>2022-01-22T12:37:11Z</time>
      </trkpt>
      <trkpt lat="44.56791" lon="1.72544">
        <ele>287</ele>
        <time>2022-01-22T12:37:17Z</time>
      </trkpt>
      <trkpt lat="44.56795" lon="1.72552">
        <ele>287.02</ele>
        <time>2022-01-22T12:37:24Z</time>
      </trkpt>
      <trkpt lat="44.56805" lon="1.72573">
        <ele>287.18</ele>
        <time>2022-01-22T12:37:40Z</time>
      </trkpt>
      <trkpt lat="44.56808" lon="1.72576">
        <ele>287.18</ele>
        <time>2022-01-22T12:37:43Z</time>
      </trkpt>
      <trkpt lat="44.56812" lon="1.72584">
        <ele>287.16</ele>
        <time>2022-01-22T12:37:50Z</time>
      </trkpt>
      <trkpt lat="44.56814" lon="1.72587">
        <ele>287.16</ele>
        <time>2022-01-22T12:37:54Z</time>
      </trkpt>
      <trkpt lat="44.56828" lon="1.72625">
        <ele>287.13</ele>
        <time>2022-01-22T12:38:17Z</time>
      </trkpt>
      <trkpt lat="44.56832" lon="1.72644">
        <ele>286.9</ele>
        <time>2022-01-22T12:38:28Z</time>
      </trkpt>
      <trkpt lat="44.56836" lon="1.72653">
        <ele>286.67</ele>
        <time>2022-01-22T12:38:34Z</time>
      </trkpt>
      <trkpt lat="44.56838" lon="1.72672">
        <ele>286.32</ele>
        <time>2022-01-22T12:38:42Z</time>
      </trkpt>
      <trkpt lat="44.56839" lon="1.72677">
        <ele>286.18</ele>
        <time>2022-01-22T12:38:46Z</time>
      </trkpt>
      <trkpt lat="44.56847" lon="1.72698">
        <ele>286.19</ele>
        <time>2022-01-22T12:39:03Z</time>
      </trkpt>
      <trkpt lat="44.56855" lon="1.72735">
        <ele>287.35</ele>
        <time>2022-01-22T12:39:22Z</time>
      </trkpt>
      <trkpt lat="44.56859" lon="1.72759">
        <ele>288.81</ele>
        <time>2022-01-22T12:39:36Z</time>
      </trkpt>
      <trkpt lat="44.56862" lon="1.7277">
        <ele>288.9</ele>
        <time>2022-01-22T12:39:50Z</time>
      </trkpt>
      <trkpt lat="44.56871" lon="1.72772">
        <ele>288.27</ele>
        <time>2022-01-22T12:40:05Z</time>
      </trkpt>
      <trkpt lat="44.56872" lon="1.7278">
        <ele>288.01</ele>
        <time>2022-01-22T12:40:12Z</time>
      </trkpt>
      <trkpt lat="44.5687" lon="1.72793">
        <ele>287.97</ele>
        <time>2022-01-22T12:40:22Z</time>
      </trkpt>
      <trkpt lat="44.5687" lon="1.72795">
        <ele>288.03</ele>
        <time>2022-01-22T12:40:27Z</time>
      </trkpt>
      <trkpt lat="44.56872" lon="1.72795">
        <ele>288.07</ele>
        <time>2022-01-22T12:40:29Z</time>
      </trkpt>
      <trkpt lat="44.56874" lon="1.72796">
        <ele>288.12</ele>
        <time>2022-01-22T12:40:32Z</time>
      </trkpt>
      <trkpt lat="44.56876" lon="1.72799">
        <ele>288.25</ele>
        <time>2022-01-22T12:40:35Z</time>
      </trkpt>
      <trkpt lat="44.56877" lon="1.72803">
        <ele>288.6</ele>
        <time>2022-01-22T12:40:39Z</time>
      </trkpt>
      <trkpt lat="44.56887" lon="1.72841">
        <ele>290.19</ele>
        <time>2022-01-22T12:40:55Z</time>
      </trkpt>
      <trkpt lat="44.56889" lon="1.72859">
        <ele>290.58</ele>
        <time>2022-01-22T12:41:01Z</time>
      </trkpt>
      <trkpt lat="44.56896" lon="1.72891">
        <ele>291.72</ele>
        <time>2022-01-22T12:41:11Z</time>
      </trkpt>
      <trkpt lat="44.56899" lon="1.72911">
        <ele>292.4</ele>
        <time>2022-01-22T12:41:18Z</time>
      </trkpt>
      <trkpt lat="44.569" lon="1.72924">
        <ele>292.66</ele>
        <time>2022-01-22T12:41:25Z</time>
      </trkpt>
      <trkpt lat="44.56903" lon="1.72931">
        <ele>292.82</ele>
        <time>2022-01-22T12:41:29Z</time>
      </trkpt>
      <trkpt lat="44.56906" lon="1.72941">
        <ele>293.17</ele>
        <time>2022-01-22T12:41:35Z</time>
      </trkpt>
      <trkpt lat="44.56914" lon="1.72957">
        <ele>293.49</ele>
        <time>2022-01-22T12:41:44Z</time>
      </trkpt>
      <trkpt lat="44.56917" lon="1.7296">
        <ele>293.53</ele>
        <time>2022-01-22T12:41:47Z</time>
      </trkpt>
      <trkpt lat="44.56925" lon="1.72973">
        <ele>293.36</ele>
        <time>2022-01-22T12:41:57Z</time>
      </trkpt>
      <trkpt lat="44.56936" lon="1.72985">
        <ele>292.81</ele>
        <time>2022-01-22T12:42:10Z</time>
      </trkpt>
      <trkpt lat="44.56938" lon="1.72991">
        <ele>292.58</ele>
        <time>2022-01-22T12:42:13Z</time>
      </trkpt>
      <trkpt lat="44.56942" lon="1.72997">
        <ele>292.06</ele>
        <time>2022-01-22T12:42:19Z</time>
      </trkpt>
      <trkpt lat="44.56947" lon="1.73004">
        <ele>291.56</ele>
        <time>2022-01-22T12:42:25Z</time>
      </trkpt>
      <trkpt lat="44.56957" lon="1.7301">
        <ele>290.15</ele>
        <time>2022-01-22T12:42:37Z</time>
      </trkpt>
      <trkpt lat="44.56972" lon="1.73018">
        <ele>288.57</ele>
        <time>2022-01-22T12:42:49Z</time>
      </trkpt>
      <trkpt lat="44.56975" lon="1.73027">
        <ele>287.87</ele>
        <time>2022-01-22T12:42:59Z</time>
      </trkpt>
      <trkpt lat="44.56978" lon="1.73035">
        <ele>286.61</ele>
        <time>2022-01-22T12:43:07Z</time>
      </trkpt>
      <trkpt lat="44.56977" lon="1.73038">
        <ele>286.18</ele>
        <time>2022-01-22T12:43:10Z</time>
      </trkpt>
      <trkpt lat="44.56979" lon="1.73047">
        <ele>285.86</ele>
        <time>2022-01-22T12:43:17Z</time>
      </trkpt>
      <trkpt lat="44.56985" lon="1.73069">
        <ele>284.83</ele>
        <time>2022-01-22T12:43:32Z</time>
      </trkpt>
      <trkpt lat="44.56989" lon="1.73081">
        <ele>284.33</ele>
        <time>2022-01-22T12:43:40Z</time>
      </trkpt>
      <trkpt lat="44.56988" lon="1.731">
        <ele>283.79</ele>
        <time>2022-01-22T12:43:47Z</time>
      </trkpt>
      <trkpt lat="44.56988" lon="1.73103">
        <ele>283.63</ele>
        <time>2022-01-22T12:43:49Z</time>
      </trkpt>
      <trkpt lat="44.56991" lon="1.73114">
        <ele>283.49</ele>
        <time>2022-01-22T12:43:55Z</time>
      </trkpt>
      <trkpt lat="44.56992" lon="1.73122">
        <ele>283.34</ele>
        <time>2022-01-22T12:43:59Z</time>
      </trkpt>
      <trkpt lat="44.56992" lon="1.73128">
        <ele>283.27</ele>
        <time>2022-01-22T12:44:01Z</time>
      </trkpt>
      <trkpt lat="44.56991" lon="1.73138">
        <ele>283.04</ele>
        <time>2022-01-22T12:44:05Z</time>
      </trkpt>
      <trkpt lat="44.56984" lon="1.73181">
        <ele>282.61</ele>
        <time>2022-01-22T12:44:25Z</time>
      </trkpt>
      <trkpt lat="44.56977" lon="1.732">
        <ele>282.73</ele>
        <time>2022-01-22T12:44:36Z</time>
      </trkpt>
      <trkpt lat="44.56977" lon="1.73208">
        <ele>282.78</ele>
        <time>2022-01-22T12:44:47Z</time>
      </trkpt>
      <trkpt lat="44.56974" lon="1.7321">
        <ele>282.73</ele>
        <time>2022-01-22T12:44:55Z</time>
      </trkpt>
      <trkpt lat="44.56957" lon="1.73229">
        <ele>281.79</ele>
        <time>2022-01-22T12:45:13Z</time>
      </trkpt>
      <trkpt lat="44.56951" lon="1.73238">
        <ele>281.32</ele>
        <time>2022-01-22T12:45:19Z</time>
      </trkpt>
      <trkpt lat="44.5695" lon="1.73242">
        <ele>281.26</ele>
        <time>2022-01-22T12:45:21Z</time>
      </trkpt>
      <trkpt lat="44.56947" lon="1.73249">
        <ele>281.17</ele>
        <time>2022-01-22T12:45:25Z</time>
      </trkpt>
      <trkpt lat="44.56944" lon="1.73259">
        <ele>280.95</ele>
        <time>2022-01-22T12:45:36Z</time>
      </trkpt>
      <trkpt lat="44.56944" lon="1.73268">
        <ele>280.89</ele>
        <time>2022-01-22T12:45:44Z</time>
      </trkpt>
      <trkpt lat="44.56944" lon="1.73282">
        <ele>280.85</ele>
        <time>2022-01-22T12:45:54Z</time>
      </trkpt>
      <trkpt lat="44.56946" lon="1.73296">
        <ele>280.92</ele>
        <time>2022-01-22T12:46:03Z</time>
      </trkpt>
      <trkpt lat="44.56946" lon="1.73302">
        <ele>280.99</ele>
        <time>2022-01-22T12:46:07Z</time>
      </trkpt>
      <trkpt lat="44.56945" lon="1.7331">
        <ele>281.06</ele>
        <time>2022-01-22T12:46:12Z</time>
      </trkpt>
      <trkpt lat="44.56939" lon="1.73335">
        <ele>281.61</ele>
        <time>2022-01-22T12:46:26Z</time>
      </trkpt>
      <trkpt lat="44.56939" lon="1.73338">
        <ele>281.66</ele>
        <time>2022-01-22T12:46:28Z</time>
      </trkpt>
      <trkpt lat="44.56937" lon="1.73345">
        <ele>281.74</ele>
        <time>2022-01-22T12:46:32Z</time>
      </trkpt>
      <trkpt lat="44.56939" lon="1.73356">
        <ele>281.86</ele>
        <time>2022-01-22T12:46:38Z</time>
      </trkpt>
      <trkpt lat="44.56938" lon="1.73365">
        <ele>282.01</ele>
        <time>2022-01-22T12:46:44Z</time>
      </trkpt>
      <trkpt lat="44.5694" lon="1.7339">
        <ele>282.56</ele>
        <time>2022-01-22T12:47:00Z</time>
      </trkpt>
      <trkpt lat="44.56939" lon="1.73409">
        <ele>282.79</ele>
        <time>2022-01-22T12:47:09Z</time>
      </trkpt>
      <trkpt lat="44.56938" lon="1.73413">
        <ele>282.8</ele>
        <time>2022-01-22T12:47:12Z</time>
      </trkpt>
      <trkpt lat="44.56937" lon="1.73419">
        <ele>282.78</ele>
        <time>2022-01-22T12:47:16Z</time>
      </trkpt>
      <trkpt lat="44.56937" lon="1.7343">
        <ele>282.86</ele>
        <time>2022-01-22T12:47:34Z</time>
      </trkpt>
      <trkpt lat="44.56935" lon="1.73434">
        <ele>312.9</ele>
      </trkpt>
    </trkseg>
  </trk>
</gpx>